Another Hard Day at the Office Weather Stats

 
 
 

High monthly outside Temperature, 22.8 , C
Low monthly outside Temperature, -1.0 , C
High yearly outside Temperature, 30.9 , C
Low yearly outside Temperature, -2.2 , C

Low monthly barometer, 1001.1 , mb
High monthly barometer, 1028.0 , mb
Low yearly barometer, 975.0 , mb
High yearly barometer 1041.1 , mb

High wind speed, 25.0 , mph
Time of High wind speed, 21:37 , mph
High monthly wind speed, 47.0 , mph
High yearly wind speed, 55.0 , mph

 

 




3126
                    Temp     Hi    Low   Out    Dew  Wind  Wind   Wind    Hi    Hi   Wind   Heat    THW                Rain    Heat    Cool    In     In    In     In     In   In Air  Wind  Wind    ISS   Arc.
  Date    Time     Out   Temp   Temp   Hum    Pt. Speed   Dir    Run Speed   Dir  Chill  Index  Index   Bar    Rain  Rate    D-D     D-D    Temp   Hum    Dew   Heat    EMC Density  Samp   Tx   Recept  Int.
---------------------------------------------------------------------------------------------------------------------------------------------------------------------------------------------------------------
26/06/17   0:05   14.1   14.2   14.1    85   11.6   0.0    NW   0.00   2.0    NW   14.1   14.1   14.1  1013.2  0.00  0.00   0.015   0.000   25.0    57   15.9   25.3  10.27  .0726    115    1    100.0    5 
26/06/17   0:10   14.0   14.1   14.0    85   11.5   2.0    NW   0.17   4.0    NW   14.0   13.9   13.9  1013.2  0.00  0.00   0.015   0.000   25.0    57   15.9   25.3  10.27  .0726    117    1    100.0    5 
26/06/17   0:15   13.9   14.0   13.9    85   11.5   1.0    NW   0.08   4.0    NW   13.9   13.9   13.9  1013.2  0.00  0.00   0.015   0.000   24.9    57   15.8   25.2  10.27  .0726    116    1    100.0    5 
26/06/17   0:20   13.9   13.9   13.9    86   11.6   2.0    NW   0.17   4.0    NW   13.9   13.8   13.8  1013.1  0.00  0.00   0.015   0.000   24.9    57   15.8   25.2  10.27  .0726    116    1    100.0    5 
26/06/17   0:25   13.8   13.9   13.8    86   11.5   2.0    NW   0.17   4.0    NW   13.8   13.8   13.8  1013.1  0.00  0.00   0.016   0.000   24.9    57   15.8   25.2  10.27  .0726    116    1    100.0    5 
26/06/17   0:30   13.8   13.8   13.8    86   11.5   2.0    NW   0.17   4.0    NW   13.8   13.7   13.7  1013.1  0.00  0.00   0.016   0.000   24.9    57   15.8   25.2  10.28  .0727    118    1    100.0    5 
26/06/17   0:35   13.8   13.8   13.7    87   11.7   1.0    NW   0.08   3.0    NW   13.8   13.8   13.8  1013.1  0.00  0.00   0.016   0.000   24.9    56   15.5   25.1  10.18  .0727    117    1    100.0    5 
26/06/17   0:40   13.7   13.8   13.7    87   11.6   3.0    NW   0.25   6.0    NW   13.7   13.7   13.7  1013.1  0.00  0.00   0.016   0.000   24.9    56   15.5   25.1  10.18  .0727    117    1    100.0    5 
26/06/17   0:45   13.7   13.7   13.7    87   11.6   3.0    NW   0.25   7.0    NW   13.7   13.7   13.7  1013.1  0.00  0.00   0.016   0.000   24.8    56   15.5   25.1  10.18  .0727    116    1    100.0    5 
26/06/17   0:50   13.7   13.7   13.7    87   11.6   3.0    NW   0.25   7.0    NW   13.7   13.7   13.7  1013.1  0.00  0.00   0.016   0.000   24.8    56   15.5   25.1  10.18  .0727    117    1    100.0    5 
26/06/17   0:55   13.7   13.7   13.7    87   11.6   2.0    NW   0.17   5.0    NW   13.7   13.7   13.7  1013.0  0.00  0.00   0.016   0.000   24.8    56   15.4   25.0  10.19  .0727    114    1    100.0    5 
26/06/17   1:00   13.7   13.7   13.7    88   11.7   1.0    NW   0.08   4.0    NW   13.7   13.7   13.7  1013.1  0.00  0.00   0.016   0.000   24.8    56   15.4   25.0  10.19  .0727    116    1    100.0    5 
26/06/17   1:05   13.7   13.7   13.7    88   11.7   0.0    NW   0.00   2.0    NW   13.7   13.7   13.7  1013.1  0.00  0.00   0.016   0.000   24.8    56   15.4   25.0  10.19  .0727    117    1    100.0    5 
26/06/17   1:10   13.6   13.7   13.6    88   11.7   0.0   ---   0.00   0.0   ---   13.6   13.6   13.6  1013.0  0.00  0.00   0.016   0.000   24.7    56   15.4   24.9  10.19  .0727    116    1    100.0    5 
26/06/17   1:15   13.6   13.6   13.6    88   11.7   0.0   ---   0.00   0.0   ---   13.6   13.6   13.6  1013.0  0.00  0.00   0.016   0.000   24.7    56   15.4   24.9  10.19  .0727    117    1    100.0    5 
26/06/17   1:20   13.6   13.6   13.6    88   11.6   0.0   ---   0.00   0.0   ---   13.6   13.6   13.6  1013.0  0.00  0.00   0.017   0.000   24.7    56   15.3   24.9  10.19  .0727    117    1    100.0    5 
26/06/17   1:25   13.6   13.6   13.5    88   11.6   0.0    NW   0.00   2.0    NW   13.6   13.6   13.6  1013.1  0.00  0.00   0.017   0.000   24.7    56   15.3   24.9  10.19  .0727    116    1    100.0    5 
26/06/17   1:30   13.6   13.6   13.5    89   11.8   2.0    NW   0.17   4.0    NW   13.6   13.6   13.6  1013.0  0.00  0.00   0.017   0.000   24.7    56   15.3   24.9  10.19  .0727    117    1    100.0    5 
26/06/17   1:35   13.6   13.6   13.6    89   11.8   2.0    NW   0.17   5.0    NW   13.6   13.6   13.6  1013.0  0.00  0.00   0.017   0.000   24.6    56   15.2   24.8  10.20  .0728    117    1    100.0    5 
26/06/17   1:40   13.6   13.6   13.6    89   11.8   3.0   NNW   0.25   7.0   NNW   13.6   13.7   13.7  1013.0  0.00  0.00   0.016   0.000   24.6    56   15.2   24.8  10.20  .0728    117    1    100.0    5 
26/06/17   1:45   13.7   13.7   13.6    89   11.9   3.0     N   0.25   6.0     N   13.7   13.7   13.7  1012.9  0.00  0.00   0.016   0.000   24.6    56   15.2   24.8  10.20  .0728    116    1    100.0    5 
26/06/17   1:50   13.7   13.7   13.6    89   11.9   4.0     N   0.33   6.0     N   13.6   13.7   13.7  1012.9  0.00  0.00   0.016   0.000   24.6    56   15.2   24.8  10.20  .0728    117    1    100.0    5 
26/06/17   1:55   13.7   13.7   13.7    89   11.9   4.0     N   0.33   7.0     N   13.7   13.8   13.7  1012.9  0.00  0.00   0.016   0.000   24.6    56   15.2   24.8  10.20  .0728    115    1    100.0    5 
26/06/17   2:00   13.7   13.7   13.7    89   11.9   3.0     N   0.25   6.0     N   13.7   13.8   13.8  1013.0  0.00  0.00   0.016   0.000   24.5    56   15.1   24.7  10.21  .0728    115    1    100.0    5 
26/06/17   2:05   13.7   13.8   13.7    89   11.9   1.0     N   0.08   4.0     N   13.7   13.8   13.8  1013.0  0.00  0.00   0.016   0.000   24.5    56   15.1   24.7  10.21  .0728    116    1    100.0    5 
26/06/17   2:10   13.7   13.7   13.7    89   11.9   1.0     N   0.08   4.0     N   13.7   13.8   13.8  1013.0  0.00  0.00   0.016   0.000   24.4    56   15.1   24.7  10.21  .0728    117    1    100.0    5 
26/06/17   2:15   13.7   13.7   13.7    89   11.9   1.0     N   0.08   6.0     N   13.7   13.8   13.8  1013.1  0.00  0.00   0.016   0.000   24.4    56   15.1   24.7  10.21  .0728    115    1    100.0    5 
26/06/17   2:20   13.7   13.7   13.7    89   11.9   2.0     N   0.17   5.0     N   13.7   13.8   13.8  1013.0  0.00  0.00   0.016   0.000   24.4    56   15.0   24.6  10.21  .0728    117    1    100.0    5 
26/06/17   2:25   13.7   13.7   13.7    90   12.1   2.0     N   0.17   7.0     N   13.7   13.8   13.8  1013.0  0.00  0.00   0.016   0.000   24.4    56   15.0   24.6  10.21  .0728    116    1    100.0    5 
26/06/17   2:30   13.7   13.7   13.7    89   11.9   3.0     N   0.25   8.0     N   13.7   13.8   13.8  1013.1  0.00  0.00   0.016   0.000   24.4    56   15.0   24.6  10.21  .0728    115    1    100.0    5 
26/06/17   2:35   13.7   13.7   13.7    89   11.9   4.0   NNE   0.33   7.0   NNE   13.6   13.7   13.7  1013.1  0.00  0.00   0.016   0.000   24.3    56   15.0   24.6  10.22  .0729    117    1    100.0    5 
26/06/17   2:40   13.7   13.7   13.7    89   11.9   4.0   NNE   0.33   8.0   NNE   13.6   13.7   13.7  1013.1  0.00  0.00   0.016   0.000   24.3    56   15.0   24.6  10.22  .0729    117    1    100.0    5 
26/06/17   2:45   13.6   13.7   13.6    88   11.7   2.0   NNE   0.17   8.0   NNE   13.6   13.6   13.6  1013.2  0.00  0.00   0.016   0.000   24.3    56   14.9   24.5  10.22  .0729    115    1    100.0    5 
26/06/17   2:50   13.6   13.6   13.6    88   11.7   3.0   NNE   0.25   6.0   NNE   13.6   13.6   13.6  1013.3  0.00  0.00   0.016   0.000   24.3    56   14.9   24.5  10.22  .0729    117    1    100.0    5 
26/06/17   2:55   13.6   13.6   13.6    88   11.6   1.0   NNE   0.08   3.0   NNE   13.6   13.6   13.6  1013.3  0.00  0.00   0.017   0.000   24.3    56   14.9   24.5  10.22  .0729    114    1    100.0    5 
26/06/17   3:00   13.6   13.6   13.6    87   11.4   0.0   NNE   0.00   3.0   NNE   13.6   13.6   13.6  1013.3  0.00  0.00   0.017   0.000   24.3    56   14.9   24.5  10.22  .0729    117    1    100.0    5 
26/06/17   3:05   13.6   13.6   13.6    87   11.4   1.0   NNE   0.08   5.0   NNE   13.6   13.6   13.6  1013.5  0.00  0.00   0.017   0.000   24.2    56   14.9   24.5  10.23  .0729    116    1    100.0    5 
26/06/17   3:10   13.6   13.6   13.6    87   11.5   0.0   NNE   0.00   2.0   NNE   13.6   13.6   13.6  1013.6  0.00  0.00   0.016   0.000   24.2    56   14.8   24.4  10.23  .0729    115    1    100.0    5 
26/06/17   3:15   13.6   13.6   13.6    87   11.5   1.0   NNE   0.08   3.0   NNE   13.6   13.6   13.6  1013.6  0.00  0.00   0.016   0.000   24.2    56   14.9   24.5  10.23  .0729    116    1    100.0    5 
26/06/17   3:20   13.7   13.7   13.6    86   11.4   2.0   NNE   0.17   5.0   NNE   13.7   13.6   13.6  1013.7  0.00  0.00   0.016   0.000   24.2    56   14.8   24.4  10.23  .0730    117    1    100.0    5 
26/06/17   3:25   13.7   13.7   13.7    86   11.4   1.0   NNE   0.08   4.0   NNE   13.7   13.7   13.7  1013.7  0.00  0.00   0.016   0.000   24.2    56   14.8   24.4  10.23  .0730    116    1    100.0    5 
26/06/17   3:30   13.7   13.7   13.7    86   11.4   0.0   NNE   0.00   1.0   NNE   13.7   13.7   13.7  1013.7  0.00  0.00   0.016   0.000   24.2    56   14.8   24.4  10.23  .0730    116    1    100.0    5 
26/06/17   3:35   13.8   13.8   13.7    86   11.5   0.0   ---   0.00   0.0   ---   13.8   13.7   13.7  1013.5  0.00  0.00   0.016   0.000   24.2    56   14.8   24.4  10.23  .0729    117    1    100.0    5 
26/06/17   3:40   13.8   13.8   13.8    85   11.3   0.0   NNE   0.00   1.0   NNE   13.8   13.7   13.7  1013.7  0.00  0.00   0.016   0.000   24.1    56   14.8   24.4  10.23  .0730    118    1    100.0    5 
26/06/17   3:45   13.8   13.8   13.8    85   11.4   1.0   NNE   0.08   3.0   NNE   13.8   13.8   13.8  1013.8  0.00  0.00   0.016   0.000   24.1    56   14.8   24.4  10.23  .0730    117    1    100.0    5 
26/06/17   3:50   13.8   13.8   13.8    85   11.4   1.0   NNE   0.08   2.0   NNE   13.8   13.8   13.8  1013.8  0.00  0.00   0.016   0.000   24.1    56   14.8   24.4  10.23  .0730    117    1    100.0    5 
26/06/17   3:55   13.9   13.9   13.9    85   11.5   0.0   NNE   0.00   2.0   NNE   13.9   13.9   13.9  1013.9  0.00  0.00   0.015   0.000   24.1    56   14.8   24.4  10.23  .0730    117    1    100.0    5 
26/06/17   4:00   13.9   14.0   13.9    86   11.6   1.0   NNE   0.08   3.0   NNE   13.9   13.9   13.9  1013.9  0.00  0.00   0.015   0.000   24.1    56   14.7   24.3  10.24  .0730    116    1    100.0    5 
26/06/17   4:05   14.1   14.1   13.9    86   11.7   1.0   NNE   0.08   4.0   NNE   14.1   14.0   14.0  1013.9  0.00  0.00   0.015   0.000   24.1    56   14.7   24.3  10.24  .0730    115    1    100.0    5 
26/06/17   4:10   14.2   14.2   14.1    86   11.9   1.0   NNE   0.08   4.0   NNE   14.2   14.1   14.1  1013.9  0.00  0.00   0.014   0.000   24.1    56   14.7   24.3  10.24  .0730    116    1    100.0    5 
26/06/17   4:15   14.3   14.3   14.2    86   12.0   3.0   NNE   0.25   7.0    NE   14.3   14.2   14.2  1014.0  0.00  0.00   0.014   0.000   24.1    56   14.7   24.3  10.24  .0730    116    1    100.0    5 
26/06/17   4:20   14.4   14.4   14.3    86   12.1   2.0    NE   0.17   5.0    NE   14.4   14.4   14.4  1013.9  0.00  0.00   0.014   0.000   24.1    56   14.7   24.3  10.24  .0730    116    1    100.0    5 
26/06/17   4:25   14.6   14.6   14.4    86   12.2   1.0    NE   0.08   3.0    NE   14.6   14.6   14.6  1014.0  0.00  0.00   0.013   0.000   24.1    56   14.7   24.3  10.24  .0730    117    1    100.0    5 
26/06/17   4:30   14.7   14.7   14.6    85   12.2   2.0    NE   0.17   7.0    NE   14.7   14.6   14.6  1014.0  0.00  0.00   0.013   0.000   24.1    56   14.8   24.4  10.23  .0730    116    1    100.0    5 
26/06/17   4:35   14.7   14.7   14.7    85   12.2   4.0    NE   0.33   8.0    NE   14.7   14.7   14.7  1013.9  0.00  0.00   0.013   0.000   24.1    56   14.8   24.4  10.23  .0730    114    1    100.0    5 
26/06/17   4:40   14.8   14.8   14.7    84   12.1   4.0   NNE   0.33   7.0   NNE   14.8   14.7   14.7  1013.9  0.00  0.00   0.012   0.000   24.1    56   14.8   24.4  10.23  .0730    116    1    100.0    5 
26/06/17   4:45   14.8   14.8   14.7    84   12.1   2.0   NNE   0.17   5.0   NNE   14.8   14.7   14.7  1013.9  0.00  0.00   0.012   0.000   24.1    56   14.8   24.4  10.23  .0730    116    1    100.0    5 
26/06/17   4:50   14.8   14.8   14.8    83   11.9   4.0   NNE   0.33   7.0   NNE   14.8   14.7   14.7  1013.9  0.00  0.00   0.012   0.000   24.1    56   14.8   24.4  10.23  .0730    117    1    100.0    5 
26/06/17   4:55   14.8   14.8   14.8    82   11.7   3.0   NNE   0.25   6.0   NNE   14.8   14.7   14.7  1013.9  0.00  0.00   0.012   0.000   24.1    56   14.8   24.4  10.23  .0730    117    1    100.0    5 
26/06/17   5:00   14.8   14.8   14.8    82   11.8   3.0   NNE   0.25   8.0   NNE   14.8   14.8   14.8  1014.0  0.00  0.00   0.012   0.000   24.1    56   14.8   24.4  10.23  .0730    117    1    100.0    5 
26/06/17   5:05   14.9   14.9   14.8    81   11.7   2.0   NNE   0.17   6.0   NNE   14.9   14.8   14.8  1014.1  0.00  0.00   0.012   0.000   24.1    56   14.8   24.4  10.23  .0730    116    1    100.0    5 
26/06/17   5:10   15.0   15.1   14.9    81   11.8   5.0   NNE   0.42   8.0   NNE   14.9   14.9   14.8  1014.0  0.00  0.00   0.012   0.000   24.2    56   14.8   24.4  10.23  .0730    115    1    100.0    5 
26/06/17   5:15   15.1   15.1   15.1    80   11.7   5.0   NNE   0.42   8.0     N   15.0   15.0   14.9  1014.0  0.00  0.00   0.011   0.000   24.2    56   14.8   24.4  10.23  .0730    117    1    100.0    5 
26/06/17   5:20   15.2   15.2   15.1    79   11.5   4.0   NNE   0.33  10.0   NNE   15.2   15.1   15.1  1014.0  0.00  0.00   0.011   0.000   24.2    56   14.8   24.4  10.23  .0730    117    1    100.0    5 
26/06/17   5:25   15.3   15.3   15.2    78   11.5   4.0   NNE   0.33  10.0     N   15.3   15.1   15.1  1014.0  0.00  0.00   0.011   0.000   24.2    56   14.8   24.4  10.23  .0730    117    1    100.0    5 
26/06/17   5:30   15.4   15.4   15.3    77   11.4   4.0   NNE   0.33   7.0    NE   15.4   15.3   15.3  1014.1  0.00  0.00   0.010   0.000   24.2    56   14.9   24.5  10.23  .0730    117    1    100.0    5 
26/06/17   5:35   15.6   15.6   15.4    77   11.6   3.0    NE   0.25   7.0    NE   15.6   15.4   15.4  1014.1  0.00  0.00   0.009   0.000   24.2    56   14.9   24.5  10.23  .0730    117    1    100.0    5 
26/06/17   5:40   15.8   15.8   15.6    75   11.4   4.0    NE   0.33   9.0    NE   15.8   15.6   15.6  1014.2  0.00  0.00   0.009   0.000   24.2    56   14.9   24.5  10.23  .0730    116    1    100.0    5 
26/06/17   5:45   15.9   15.9   15.8    74   11.3   5.0    NE   0.42   9.0    NE   15.9   15.7   15.7  1014.1  0.00  0.00   0.008   0.000   24.2    56   14.9   24.5  10.23  .0730    115    1    100.0    5 
26/06/17   5:50   15.9   15.9   15.9    73   11.1   4.0    NE   0.33   9.0    NE   15.9   15.7   15.7  1014.0  0.00  0.00   0.008   0.000   24.2    56   14.9   24.5  10.23  .0730    118    1    100.0    5 
26/06/17   5:55   16.1   16.1   15.9    74   11.5   6.0   NNE   0.50   9.0   NNE   16.0   15.9   15.8  1014.1  0.00  0.00   0.008   0.000   24.2    56   14.9   24.5  10.23  .0730    117    1    100.0    5 
26/06/17   6:00   16.3   16.3   16.1    74   11.6   3.0    NE   0.25   7.0    NE   16.3   16.1   16.1  1014.1  0.00  0.00   0.007   0.000   24.2    56   14.9   24.5  10.23  .0730    117    1    100.0    5 
26/06/17   6:05   16.4   16.4   16.3    74   11.7   3.0   NNE   0.25   7.0   NNE   16.4   16.2   16.2  1014.0  0.00  0.00   0.007   0.000   24.2    56   14.9   24.5  10.23  .0730    117    1    100.0    5 
26/06/17   6:10   16.6   16.6   16.4    74   11.9   7.0   NNE   0.58  11.0   NNE   16.3   16.4   16.2  1013.8  0.00  0.00   0.006   0.000   24.2    56   14.9   24.5  10.23  .0729    117    1    100.0    5 
26/06/17   6:15   16.7   16.7   16.6    74   12.0   3.0   NNE   0.25  11.0   NNE   16.7   16.5   16.5  1013.7  0.00  0.00   0.006   0.000   24.2    56   14.9   24.5  10.23  .0729    116    1    100.0    5 
26/06/17   6:20   16.8   16.8   16.7    74   12.2   3.0   NNE   0.25   8.0    NE   16.8   16.7   16.7  1013.8  0.00  0.00   0.005   0.000   24.3    56   14.9   24.5  10.22  .0729    116    1    100.0    5 
26/06/17   6:25   17.0   17.0   16.8    75   12.5   3.0    NE   0.25   7.0    NE   17.0   16.9   16.9  1013.7  0.00  0.00   0.005   0.000   24.3    56   14.9   24.5  10.22  .0729    116    1    100.0    5 
26/06/17   6:30   17.1   17.2   17.1    74   12.4   5.0    NE   0.42   8.0    NE   17.1   17.0   17.0  1013.6  0.00  0.00   0.004   0.000   24.3    56   14.9   24.5  10.22  .0729    115    1    100.0    5 
26/06/17   6:35   17.2   17.2   17.2    74   12.5   6.0   NNE   0.50  11.0   NNE   17.2   17.1   17.1  1013.6  0.00  0.00   0.004   0.000   24.3    56   14.9   24.5  10.22  .0729    117    1    100.0    5 
26/06/17   6:40   17.2   17.2   17.2    74   12.5   5.0   NNE   0.42   9.0   NNE   17.2   17.1   17.1  1013.6  0.00  0.00   0.004   0.000   24.3    56   15.0   24.6  10.22  .0729    115    1    100.0    5 
26/06/17   6:45   17.3   17.3   17.2    74   12.6   5.0    NE   0.42   9.0    NE   17.3   17.2   17.2  1013.5  0.00  0.00   0.004   0.000   24.3    56   15.0   24.6  10.22  .0729    116    1    100.0    5 
26/06/17   6:50   17.3   17.3   17.3    74   12.7   6.0    NE   0.50  11.0   NNE   17.3   17.3   17.3  1013.4  0.00  0.00   0.003   0.000   24.3    56   15.0   24.6  10.22  .0729    118    1    100.0    5 
26/06/17   6:55   17.3   17.3   17.3    74   12.7   3.0    NE   0.25   9.0   NNE   17.3   17.3   17.3  1013.4  0.00  0.00   0.003   0.000   24.3    56   15.0   24.6  10.22  .0729    117    1    100.0    5 
26/06/17   7:00   17.4   17.4   17.3    74   12.8   6.0   NNE   0.50  12.0   NNE   17.4   17.4   17.4  1013.4  0.00  0.00   0.003   0.000   24.4    56   15.0   24.6  10.21  .0729    117    1    100.0    5 
26/06/17   7:05   17.6   17.6   17.4    73   12.7   4.0   NNE   0.33   9.0    NE   17.6   17.5   17.5  1013.5  0.00  0.00   0.003   0.000   24.4    56   15.0   24.6  10.21  .0729    117    1    100.0    5 
26/06/17   7:10   17.7   17.7   17.6    72   12.6   5.0   NNE   0.42   9.0    NE   17.7   17.6   17.6  1013.4  0.00  0.00   0.002   0.000   24.4    56   15.0   24.6  10.21  .0729    117    1    100.0    5 
26/06/17   7:15   17.8   17.8   17.7    69   12.0   5.0    NE   0.42   9.0    NE   17.8   17.6   17.6  1013.4  0.00  0.00   0.002   0.000   24.4    56   15.1   24.7  10.21  .0728    117    1    100.0    5 
26/06/17   7:20   17.8   17.8   17.8    68   11.8   7.0   NNE   0.58  12.0    NE   17.8   17.6   17.6  1013.3  0.00  0.00   0.002   0.000   24.4    56   15.1   24.7  10.21  .0728    117    1    100.0    5 
26/06/17   7:25   17.8   17.8   17.7    66   11.4   5.0    NE   0.42  10.0    NE   17.8   17.6   17.6  1013.3  0.00  0.00   0.002   0.000   24.4    56   15.1   24.7  10.21  .0728    116    1    100.0    5 
26/06/17   7:30   18.2   18.2   17.8    68   12.2   3.0   ENE   0.25   9.0    NE   18.2   18.1   18.1  1013.4  0.00  0.00   0.000   0.000   24.4    56   15.1   24.7  10.21  .0728    117    1    100.0    5 
26/06/17   7:35   18.7   18.7   18.2    67   12.4   5.0     E   0.42  11.0   ESE   18.7   18.6   18.6  1013.5  0.00  0.00   0.000   0.001   24.5    56   15.1   24.7  10.21  .0728    116    1    100.0    5 
26/06/17   7:40   19.0   19.0   18.7    63   11.8   5.0   ENE   0.42  10.0   ENE   19.0   18.8   18.8  1013.5  0.00  0.00   0.000   0.002   24.5    56   15.1   24.7  10.21  .0728    117    1    100.0    5 
26/06/17   7:45   19.2   19.2   19.1    62   11.8   3.0   ENE   0.25   7.0     E   19.2   19.0   19.0  1013.4  0.00  0.00   0.000   0.003   24.6    56   15.2   24.8  10.20  .0728    117    1    100.0    5 
26/06/17   7:50   19.4   19.4   19.2    62   11.9   5.0   NNE   0.42   9.0   NNE   19.4   19.2   19.2  1013.5  0.00  0.00   0.000   0.004   24.6    56   15.2   24.8  10.20  .0728    117    1    100.0    5 
26/06/17   7:55   19.8   19.8   19.4    60   11.8   5.0   ENE   0.42  10.0    NE   19.8   19.6   19.6  1013.5  0.00  0.00   0.000   0.005   24.6    56   15.2   24.8  10.20  .0728    117    1    100.0    5 
26/06/17   8:00   20.1   20.1   19.8    58   11.6   4.0    NE   0.33   9.0   NNE   20.1   19.8   19.8  1013.5  0.00  0.00   0.000   0.006   24.6    56   15.2   24.8  10.20  .0728    117    1    100.0    5 
26/06/17   8:05   20.3   20.3   20.2    56   11.3   4.0    NE   0.33  10.0    NE   20.3   19.9   19.9  1013.5  0.00  0.00   0.000   0.007   24.6    56   15.2   24.8  10.20  .0728    116    1    100.0    5 
26/06/17   8:10   20.5   20.5   20.3    57   11.7   3.0    NE   0.25   7.0    NE   20.5   20.1   20.1  1013.7  0.00  0.00   0.000   0.008   24.7    56   15.3   24.9  10.19  .0728    117    1    100.0    5 
26/06/17   8:15   20.8   20.8   20.5    59   12.5   7.0   ESE   0.58  11.0   ESE   20.8   20.4   20.4  1013.7  0.00  0.00   0.000   0.009   24.7    56   15.3   24.9  10.19  .0728    117    1    100.0    5 
26/06/17   8:20   21.1   21.1   20.8    58   12.5   7.0   ESE   0.58  11.0     E   21.1   20.6   20.6  1013.7  0.00  0.00   0.000   0.010   24.7    56   15.4   24.9  10.19  .0728    117    1    100.0    5 
26/06/17   8:25   21.3   21.3   21.1    56   12.1   8.0   ESE   0.67  11.0   ESE   21.0   20.7   20.4  1013.8  0.00  0.00   0.000   0.010   24.8    56   15.4   25.0  10.19  .0728    117    1    100.0    5 
26/06/17   8:30   21.3   21.3   21.3    56   12.1   8.0   ESE   0.67  11.0   ESE   21.0   20.7   20.4  1013.8  0.00  0.00   0.000   0.010   24.8    56   15.4   25.0  10.19  .0728    116    1    100.0    5 
26/06/17   8:35   21.3   21.3   21.3    56   12.2   6.0   ESE   0.50  10.0   ESE   21.3   20.7   20.7  1013.8  0.00  0.00   0.000   0.010   24.8    56   15.5   25.1  10.18  .0728    117    1    100.0    5 
26/06/17   8:40   21.3   21.3   21.3    55   11.9   8.0   ESE   0.67  10.0   ESE   21.1   20.7   20.4  1013.9  0.00  0.00   0.000   0.010   24.8    56   15.5   25.1  10.18  .0728    117    1    100.0    5 
26/06/17   8:45   21.3   21.3   21.3    56   12.2   8.0   ESE   0.67  10.0   ESE   21.1   20.7   20.4  1013.8  0.00  0.00   0.000   0.010   24.9    56   15.5   25.1  10.18  .0727    117    1    100.0    5 
26/06/17   8:50   21.3   21.3   21.3    57   12.5   8.0   ESE   0.67  11.0     E   21.1   20.8   20.5  1013.9  0.00  0.00   0.000   0.010   24.9    56   15.5   25.1  10.18  .0727    117    1    100.0    5 
26/06/17   8:55   21.3   21.3   21.3    56   12.1   9.0   ESE   0.75  12.0   ESE   20.5   20.7   19.9  1013.9  0.00  0.00   0.000   0.010   24.9    56   15.6   25.2  10.17  .0727    117    1    100.0    5 
26/06/17   9:00   21.3   21.3   21.3    56   12.1   8.0   ESE   0.67  12.0   ESE   21.0   20.7   20.4  1013.9  0.00  0.00   0.000   0.010   24.9    56   15.6   25.2  10.17  .0727    118    1    100.0    5 
26/06/17   9:05   21.4   21.4   21.3    56   12.2   9.0   ESE   0.75  11.0   ESE   20.6   20.8   20.0  1013.9  0.00  0.00   0.000   0.011   25.0    56   15.6   25.2  10.17  .0727    116    1    100.0    5 
26/06/17   9:10   21.4   21.4   21.4    56   12.3   9.0   ESE   0.75  12.0   ESE   20.7   20.9   20.1  1014.0  0.00  0.00   0.000   0.011   25.1    56   15.7   25.3  10.17  .0727    116    1    100.0    5 
26/06/17   9:15   21.4   21.4   21.4    56   12.3  10.0   ESE   0.83  13.0   ESE   20.3   20.9   19.7  1013.9  0.00  0.00   0.000   0.011   25.1    56   15.7   25.3  10.17  .0727    116    1    100.0    5 
26/06/17   9:20   21.7   21.7   21.4    56   12.6  10.0   ESE   0.83  13.0   ESE   20.6   21.2   20.1  1013.9  0.00  0.00   0.000   0.012   25.1    56   15.7   25.3  10.16  .0727    117    1    100.0    5 
26/06/17   9:25   22.0   22.0   21.7    55   12.5  10.0   ESE   0.83  13.0   ESE   20.8   21.6   20.4  1014.0  0.00  0.00   0.000   0.013   25.1    56   15.7   25.3  10.16  .0727    117    1    100.0    5 
26/06/17   9:30   22.2   22.2   22.0    55   12.7  10.0   ESE   0.83  12.0   ESE   21.1   21.9   20.8  1014.0  0.00  0.00   0.000   0.014   25.2    56   15.8   25.4  10.16  .0727    116    1    100.0    5 
26/06/17   9:35   22.3   22.3   22.2    55   12.8   9.0    SE   0.75  12.0   ESE   21.5   22.0   21.2  1014.0  0.00  0.00   0.000   0.014   25.2    56   15.8   25.4  10.16  .0727    117    1    100.0    5 
26/06/17   9:40   22.2   22.3   22.2    56   13.0   8.0    SE   0.67  11.0    SE   21.9   22.0   21.7  1014.0  0.00  0.00   0.000   0.014   25.2    56   15.8   25.5  10.15  .0726    117    1    100.0    5 
26/06/17   9:45   22.1   22.2   22.1    56   12.9   9.0    SE   0.75  11.0    SE   21.3   21.8   21.1  1014.0  0.00  0.00   0.000   0.013   25.3    56   15.9   25.6  10.15  .0726    117    1    100.0    5 
26/06/17   9:50   22.2   22.2   22.2    55   12.7   8.0    SE   0.67  11.0    SE   21.9   21.9   21.7  1014.0  0.00  0.00   0.000   0.014   25.3    56   15.9   25.6  10.15  .0726    116    1    100.0    5 
26/06/17   9:55   22.2   22.3   22.2    55   12.7   9.0    SE   0.75  12.0    SE   21.4   21.9   21.1  1014.0  0.00  0.00   0.000   0.013   25.3    56   15.9   25.6  10.15  .0726    116    1    100.0    5 
26/06/17  10:00   22.1   22.2   22.1    60   13.9   9.0    SE   0.75  12.0    SE   21.3   21.9   21.2  1014.0  0.00  0.00   0.000   0.013   25.4    56   16.0   25.7  10.14  .0726    117    1    100.0    5 
26/06/17  10:05   22.1   22.1   22.0    61   14.2   8.0    SE   0.67  10.0    SE   21.8   22.0   21.7  1013.9  0.00  0.00   0.000   0.013   25.4    56   16.0   25.7  10.14  .0726    117    1    100.0    5 
26/06/17  10:10   22.1   22.1   22.1    59   13.7   8.0    SE   0.67  10.0    SE   21.8   21.9   21.6  1013.9  0.00  0.00   0.000   0.013   25.4    56   16.0   25.7  10.14  .0726    116    1    100.0    5 
26/06/17  10:15   22.1   22.1   22.1    58   13.4   8.0    SE   0.67  11.0    SE   21.8   21.8   21.6  1013.9  0.00  0.00   0.000   0.013   25.5    56   16.1   25.8  10.13  .0725    117    1    100.0    5 
26/06/17  10:20   21.9   22.1   21.9    59   13.5   8.0    SE   0.67  10.0    SE   21.6   21.7   21.4  1013.8  0.00  0.00   0.000   0.012   25.5    56   16.1   25.8  10.13  .0725    117    1    100.0    5 
26/06/17  10:25   21.8   21.9   21.8    60   13.7   9.0    SE   0.75  12.0    SE   21.1   21.6   20.8  1013.8  0.00  0.00   0.000   0.012   25.6    56   16.1   25.9  10.13  .0725    115    1    100.0    5 
26/06/17  10:30   21.7   21.8   21.7    60   13.6   8.0    SE   0.67  11.0    SE   21.4   21.4   21.1  1013.8  0.00  0.00   0.000   0.012   25.6    56   16.1   25.9  10.13  .0725    117    1    100.0    5 
26/06/17  10:35   21.5   21.7   21.5    61   13.7   7.0    SE   0.58  10.0    SE   21.5   21.2   21.2  1013.7  0.00  0.00   0.000   0.011   25.6    56   16.2   25.9  10.13  .0725    117    1    100.0    5 
26/06/17  10:40   21.8   21.8   21.5    60   13.7   9.0    SE   0.75  11.0    SE   21.0   21.6   20.8  1013.7  0.00  0.00   0.000   0.012   25.7    56   16.2   26.0  10.12  .0725    117    1    100.0    5 
26/06/17  10:45   22.0   22.0   21.8    59   13.6   8.0    SE   0.67  10.0    SE   21.7   21.8   21.6  1013.6  0.00  0.00   0.000   0.013   25.7    56   16.3   26.1  10.12  .0724    117    1    100.0    5 
26/06/17  10:50   22.2   22.2   22.0    58   13.6   8.0    SE   0.67  11.0    SE   21.9   22.1   21.8  1013.6  0.00  0.00   0.000   0.014   25.7    56   16.3   26.1  10.12  .0724    116    1    100.0    5 
26/06/17  10:55   22.3   22.3   22.2    55   12.9   8.0    SE   0.67  10.0    SE   22.1   22.1   21.8  1013.7  0.00  0.00   0.000   0.014   25.8    56   16.3   26.1  10.11  .0724    117    1    100.0    5 
26/06/17  11:00   22.6   22.6   22.3    54   12.8   8.0    SE   0.67  10.0    SE   22.3   22.4   22.1  1013.6  0.00  0.00   0.000   0.015   25.8    56   16.4   26.2  10.11  .0724    116    1    100.0    5 
26/06/17  11:05   22.7   22.7   22.6    55   13.2   7.0    SE   0.58   9.0    SE   22.7   22.7   22.7  1013.6  0.00  0.00   0.000   0.015   25.9    56   16.4   26.3  10.11  .0724    118    1    100.0    5 
26/06/17  11:10   22.8   22.8   22.7    55   13.3   8.0    SE   0.67  10.0    SE   22.5   22.8   22.5  1013.6  0.00  0.00   0.000   0.015   25.9    56   16.5   26.3  10.10  .0724    115    1    100.0    5 
26/06/17  11:15   22.9   22.9   22.8    53   12.8   7.0    SE   0.58   9.0    SE   22.9   22.8   22.8  1013.5  0.00  0.00   0.000   0.016   25.9    56   16.5   26.3  10.10  .0724    117    1    100.0    5 
26/06/17  11:20   22.9   22.9   22.8    55   13.4   6.0    SE   0.50   8.0    SE   22.9   22.9   22.9  1013.4  0.00  0.00   0.000   0.016   26.0    56   16.5   26.4  10.10  .0723    117    1    100.0    5 
26/06/17  11:25   23.1   23.1   22.9    54   13.3   7.0    SE   0.58   9.0    SE   23.1   23.1   23.1  1013.3  0.00  0.00   0.000   0.017   26.1    56   16.6   26.4  10.09  .0723    117    1    100.0    5 
26/06/17  11:30   23.4   23.4   23.1    53   13.3   8.0    SE   0.67  10.0    SE   23.1   23.4   23.1  1013.3  0.00  0.00   0.000   0.018   26.1    56   16.6   26.5  10.09  .0723    117    1    100.0    5 
26/06/17  11:35   23.5   23.5   23.4    54   13.7   8.0    SE   0.67  10.0    SE   23.2   23.6   23.3  1013.2  0.00  0.00   0.000   0.018   26.2    56   16.7   26.6  10.09  .0723    117    1    100.0    5 
26/06/17  11:40   23.4   23.6   23.4    54   13.6   8.0    SE   0.67  10.0    SE   23.2   23.6   23.3  1013.2  0.00  0.00   0.000   0.018   26.2    56   16.7   26.6  10.08  .0723    117    1    100.0    5 
26/06/17  11:45   23.2   23.4   23.2    53   13.1   9.0    SE   0.75  11.0    SE   22.5   23.2   22.5  1013.1  0.00  0.00   0.000   0.017   26.3    56   16.8   26.7  10.08  .0722    116    1    100.0    5 
26/06/17  11:50   23.3   23.3   23.2    56   14.0  10.0    SE   0.83  12.0    SE   22.2   23.4   22.3  1013.1  0.00  0.00   0.000   0.017   26.3    56   16.9   26.7  10.07  .0722    117    1    100.0    5 
26/06/17  11:55   23.2   23.3   23.2    56   14.0  10.0    SE   0.83  12.0    SE   22.1   23.4   22.3  1013.1  0.00  0.00   0.000   0.017   26.4    56   16.9   26.8  10.07  .0722    117    1    100.0    5 
26/06/17  12:00   23.3   23.3   23.2    58   14.5   9.0    SE   0.75  11.0    SE   22.6   23.6   22.8  1013.0  0.00  0.00   0.000   0.017   26.4    56   16.9   26.8  10.07  .0722    117    1    100.0    5 
26/06/17  12:05   23.4   23.4   23.3    56   14.1   9.0    SE   0.75  11.0   ESE   22.7   23.6   22.8  1012.9  0.00  0.00   0.000   0.018   26.4    56   17.0   26.9  10.07  .0722    114    1    100.0    5 
26/06/17  12:10   23.4   23.4   23.4    54   13.6   9.0    SE   0.75  10.0    SE   22.7   23.6   22.8  1012.9  0.00  0.00   0.000   0.018   26.5    56   17.0   26.9  10.06  .0721    118    1    100.0    5 
26/06/17  12:15   23.5   23.5   23.4    55   13.9   8.0   ESE   0.67  10.0    SE   23.2   23.7   23.4  1012.9  0.00  0.00   0.000   0.018   26.6    56   17.1   27.0  10.06  .0721    117    1    100.0    5 
26/06/17  12:20   23.8   23.8   23.6    56   14.5   9.0   ESE   0.75  11.0   ESE   23.1   24.1   23.3  1012.9  0.00  0.00   0.000   0.019   26.6    56   17.1   27.1  10.05  .0721    115    1    100.0    5 
26/06/17  12:25   23.8   23.8   23.8    56   14.5   9.0    SE   0.75  11.0    SE   23.1   24.2   23.4  1012.9  0.00  0.00   0.000   0.019   26.7    56   17.2   27.1  10.05  .0721    117    1    100.0    5 
26/06/17  12:30   24.0   24.0   23.8    54   14.1   9.0   ESE   0.75  11.0   ESE   23.3   24.2   23.5  1012.8  0.00  0.00   0.000   0.020   26.7    56   17.2   27.2  10.05  .0721    117    1    100.0    5 
26/06/17  12:35   24.1   24.1   24.0    54   14.2   9.0   ESE   0.75  11.0   ESE   23.4   24.3   23.6  1012.7  0.00  0.00   0.000   0.020   26.8    56   17.3   27.3  10.05  .0720    117    1    100.0    5 
26/06/17  12:40   24.1   24.2   24.1    53   13.9   9.0    SE   0.75  11.0    SE   23.4   24.3   23.6  1012.7  0.00  0.00   0.000   0.020   26.8    56   17.3   27.3  10.05  .0720    117    1    100.0    5 
26/06/17  12:45   24.1   24.1   24.0    54   14.2  10.0    SE   0.83  12.0    SE   22.9   24.3   23.2  1012.7  0.00  0.00   0.000   0.020   26.9    55   17.1   27.3   9.85  .0720    117    1    100.0    5 
26/06/17  12:50   23.8   24.0   23.8    53   13.6  10.0    SE   0.83  12.0    SE   22.7   23.9   22.8  1012.6  0.00  0.00   0.000   0.019   26.9    55   17.1   27.4   9.85  .0720    117    1    100.0    5 
26/06/17  12:55   23.7   23.8   23.7    54   13.8  11.0    SE   0.92  13.0    SE   22.3   23.8   22.5  1012.6  0.00  0.00   0.000   0.019   27.0    55   17.2   27.4   9.85  .0720    117    1    100.0    5 
26/06/17  13:00   23.7   23.7   23.7    54   13.9  11.0   ESE   0.92  13.0    SE   22.4   23.9   22.6  1012.5  0.00  0.00   0.000   0.019   27.1    55   17.2   27.5   9.85  .0720    117    1    100.0    5 
26/06/17  13:05   23.7   23.7   23.7    54   13.8  11.0    SE   0.92  14.0    SE   22.3   23.8   22.5  1012.5  0.00  0.00   0.000   0.019   27.1    55   17.2   27.5   9.85  .0720    117    1    100.0    5 
26/06/17  13:10   23.6   23.7   23.6    56   14.3  11.0    SE   0.92  13.0    SE   22.3   23.8   22.5  1012.5  0.00  0.00   0.000   0.018   27.2    55   17.3   27.7   9.85  .0719    118    1    100.0    5 
26/06/17  13:15   23.8   23.8   23.6    57   14.7  10.0    SE   0.83  13.0    SE   22.7   24.1   23.0  1012.4  0.00  0.00   0.000   0.019   27.2    55   17.3   27.7   9.85  .0719    116    1    100.0    5 
26/06/17  13:20   23.8   23.8   23.8    54   13.9  11.0    SE   0.92  14.0   ESE   22.4   24.0   22.7  1012.4  0.00  0.00   0.000   0.019   27.2    55   17.4   27.7   9.85  .0719    117    1    100.0    5 
26/06/17  13:25   23.6   23.8   23.6    55   14.0  12.0    SE   1.00  14.0    SE   21.9   23.7   22.1  1012.3  0.00  0.00   0.000   0.018   27.3    55   17.4   27.8   9.85  .0719    117    1    100.0    5 
26/06/17  13:30   23.4   23.6   23.4    55   13.9  11.0    SE   0.92  13.0    SE   22.1   23.6   22.2  1012.2  0.00  0.00   0.000   0.018   27.3    55   17.5   27.9   9.85  .0719    116    1    100.0    5 
26/06/17  13:35   23.6   23.6   23.4    55   14.0  10.0    SE   0.83  13.0    SE   22.4   23.7   22.6  1012.2  0.00  0.00   0.000   0.018   27.4    55   17.5   28.0   9.85  .0718    117    1    100.0    5 
26/06/17  13:40   23.6   23.6   23.5    55   14.0  11.0    SE   0.92  13.0    SE   22.2   23.7   22.3  1012.2  0.00  0.00   0.000   0.018   27.4    55   17.6   28.1   9.85  .0718    117    1    100.0    5 
26/06/17  13:45   23.3   23.5   23.3    56   14.1  11.0    SE   0.92  13.0    SE   21.9   23.5   22.1  1012.1  0.00  0.00   0.000   0.017   27.5    55   17.7   28.2   9.85  .0718    116    1    100.0    5 
26/06/17  13:50   23.4   23.4   23.3    53   13.3  10.0    SE   0.83  13.0   ESE   22.3   23.5   22.4  1012.1  0.00  0.00   0.000   0.018   27.5    55   17.7   28.2   9.85  .0718    117    1    100.0    5 
26/06/17  13:55   23.6   23.6   23.4    53   13.4  11.0   ESE   0.92  13.0    SE   22.2   23.6   22.2  1012.1  0.00  0.00   0.000   0.018   27.6    55   17.7   28.2   9.85  .0718    116    1    100.0    5 
26/06/17  14:00   23.8   23.8   23.6    54   13.9  10.0   ESE   0.83  12.0   ESE   22.7   24.0   22.9  1012.1  0.00  0.00   0.000   0.019   27.6    55   17.8   28.3   9.85  .0718    115    1    100.0    5 
26/06/17  14:05   23.9   23.9   23.8    53   13.8  10.0   ESE   0.83  13.0   ESE   22.8   24.1   23.0  1012.1  0.00  0.00   0.000   0.019   27.7    54   17.5   28.3   9.75  .0718    116    1    100.0    5 
26/06/17  14:10   24.1   24.1   23.9    54   14.2   9.0   ESE   0.75  12.0    SE   23.4   24.3   23.6  1012.1  0.00  0.00   0.000   0.020   27.7    54   17.6   28.4   9.75  .0717    117    1    100.0    5 
26/06/17  14:15   24.3   24.3   24.1    53   14.1  10.0   ESE   0.83  13.0   ESE   23.2   24.4   23.3  1012.1  0.00  0.00   0.000   0.021   27.7    54   17.6   28.4   9.75  .0717    118    1    100.0    5 
26/06/17  14:20   24.4   24.4   24.3    52   13.9   9.0   ESE   0.75  12.0   ESE   23.7   24.5   23.8  1012.0  0.00  0.00   0.000   0.021   27.8    54   17.6   28.4   9.75  .0717    117    1    100.0    5 
26/06/17  14:25   24.7   24.7   24.4    52   14.2  10.0   ESE   0.83  12.0   ESE   23.6   24.7   23.7  1012.1  0.00  0.00   0.000   0.022   27.8    54   17.7   28.6   9.75  .0717    116    1    100.0    5 
26/06/17  14:30   24.8   24.8   24.7    51   14.0   9.0   ESE   0.75  11.0   ESE   24.1   24.8   24.1  1012.0  0.00  0.00   0.000   0.022   27.9    55   18.0   28.7   9.85  .0717    117    1    100.0    5 
26/06/17  14:35   24.8   24.8   24.8    50   13.7  10.0   ESE   0.83  12.0   ESE   23.8   24.8   23.7  1012.0  0.00  0.00   0.000   0.023   27.9    55   18.1   28.8   9.85  .0716    117    1    100.0    5 
26/06/17  14:40   24.7   24.8   24.7    50   13.6  11.0   ESE   0.92  13.0   ESE   23.4   24.7   23.4  1012.0  0.00  0.00   0.000   0.022   27.9    55   18.1   28.8   9.85  .0716    117    1    100.0    5 
26/06/17  14:45   23.9   24.7   23.9    52   13.5  11.0   ESE   0.92  13.0   ESE   22.6   24.1   22.7  1012.0  0.00  0.00   0.000   0.019   28.0    55   18.1   28.9   9.85  .0716    117    1    100.0    5 
26/06/17  14:50   23.6   23.9   23.6    54   13.7  11.0   ESE   0.92  13.0   ESE   22.2   23.7   22.3  1011.9  0.00  0.00   0.000   0.018   28.1    55   18.2   29.0   9.85  .0716    117    1    100.0    5 
26/06/17  14:55   23.6   23.6   23.5    54   13.7  11.0   ESE   0.92  13.0   ESE   22.2   23.7   22.3  1011.9  0.00  0.00   0.000   0.018   28.1    55   18.2   29.1   9.85  .0716    116    1    100.0    5 
26/06/17  15:00   23.6   23.6   23.6    55   14.0  11.0   ESE   0.92  13.0   ESE   22.3   23.8   22.4  1011.8  0.00  0.00   0.000   0.018   28.1    55   18.2   29.1   9.85  .0716    116    1    100.0    5 
26/06/17  15:05   23.7   23.7   23.6    54   13.8  10.0   ESE   0.83  13.0   ESE   22.6   23.8   22.7  1011.8  0.00  0.00   0.000   0.019   28.2    55   18.3   29.1   9.85  .0716    117    1    100.0    5 
26/06/17  15:10   23.7   23.7   23.7    55   14.1  10.0    SE   0.83  12.0    SE   22.6   23.9   22.8  1011.8  0.00  0.00   0.000   0.019   28.2    55   18.3   29.2   9.85  .0715    117    1    100.0    5 
26/06/17  15:15   23.6   23.7   23.6    54   13.8  10.0   ESE   0.83  12.0    SE   22.5   23.8   22.7  1011.8  0.00  0.00   0.000   0.018   28.2    55   18.3   29.2   9.85  .0715    118    1    100.0    5 
26/06/17  15:20   23.6   23.7   23.6    53   13.4   8.0    SE   0.67  11.0   ESE   23.3   23.6   23.3  1011.8  0.00  0.00   0.000   0.018   28.3    55   18.4   29.3   9.85  .0715    115    1    100.0    5 
26/06/17  15:25   23.2   23.6   23.2    55   13.6   8.0   ESE   0.67  11.0    SE   22.9   23.2   22.9  1011.8  0.00  0.00   0.000   0.017   28.3    55   18.4   29.3   9.85  .0715    114    1    100.0    5 
26/06/17  15:30   22.9   23.1   22.9    56   13.6   8.0   ESE   0.67  10.0   ESE   22.6   22.9   22.7  1011.9  0.00  0.00   0.000   0.016   28.3    55   18.4   29.3   9.85  .0715    117    1    100.0    5 
26/06/17  15:35   23.1   23.1   22.9    57   14.1   7.0   ESE   0.58   9.0   ESE   23.1   23.3   23.3  1011.8  0.00  0.00   0.000   0.017   28.3    55   18.4   29.4   9.85  .0715    116    1    100.0    5 
26/06/17  15:40   23.4   23.4   23.2    56   14.1   7.0   ESE   0.58   9.0   ESE   23.4   23.6   23.6  1011.8  0.00  0.00   0.000   0.018   28.3    55   18.4   29.4   9.85  .0715    117    1    100.0    5 
26/06/17  15:45   23.5   23.5   23.4    55   13.9   7.0    SE   0.58   9.0   ESE   23.5   23.7   23.7  1011.7  0.00  0.00   0.000   0.018   28.4    55   18.5   29.5   9.85  .0715    116    1    100.0    5 
26/06/17  15:50   23.4   23.5   23.4    54   13.6   7.0    SE   0.58   8.0    SE   23.4   23.6   23.6  1011.6  0.00  0.00   0.000   0.018   28.4    55   18.5   29.6   9.85  .0714    117    1    100.0    5 
26/06/17  15:55   23.4   23.4   23.4    54   13.6   7.0    SE   0.58   9.0    SE   23.4   23.4   23.4  1011.6  0.00  0.00   0.000   0.018   28.4    54   18.2   29.5   9.75  .0715    117    1    100.0    5 
26/06/17  16:00   23.0   23.4   23.0    56   13.7   7.0    SE   0.58  10.0    SE   23.0   23.1   23.1  1011.6  0.00  0.00   0.000   0.016   28.5    54   18.3   29.6   9.75  .0715    117    1    100.0    5 
26/06/17  16:05   22.7   22.9   22.7    57   13.7   6.0   ESE   0.50   9.0    SE   22.7   22.7   22.7  1011.6  0.00  0.00   0.000   0.015   28.5    54   18.3   29.6   9.75  .0715    117    1    100.0    5 
26/06/17  16:10   22.4   22.7   22.4    58   13.8   5.0   ESE   0.42   8.0   ESE   22.4   22.4   22.4  1011.6  0.00  0.00   0.000   0.014   28.5    54   18.3   29.6   9.75  .0715    116    1    100.0    5 
26/06/17  16:15   22.3   22.4   22.3    59   13.9   5.0   ESE   0.42   7.0   ESE   22.3   22.2   22.2  1011.5  0.00  0.00   0.000   0.014   28.5    54   18.3   29.6   9.75  .0715    117    1    100.0    5 
26/06/17  16:20   22.4   22.4   22.3    60   14.2   5.0   ESE   0.42   7.0   ESE   22.4   22.4   22.4  1011.6  0.00  0.00   0.000   0.014   28.5    54   18.3   29.6   9.75  .0715    117    1    100.0    5 
26/06/17  16:25   22.7   22.7   22.4    60   14.6   5.0   ESE   0.42   8.0   ESE   22.7   22.9   22.9  1011.4  0.00  0.00   0.000   0.015   28.6    54   18.3   29.7   9.75  .0714    117    1    100.0    5 
26/06/17  16:30   23.1   23.1   22.7    59   14.6   4.0   ESE   0.33   7.0   ESE   23.1   23.3   23.3  1011.4  0.00  0.00   0.000   0.016   28.6    54   18.4   29.8   9.75  .0714    117    1    100.0    5 
26/06/17  16:35   23.3   23.3   23.1    59   14.8   5.0   ESE   0.42   8.0   ESE   23.3   23.6   23.6  1011.4  0.00  0.00   0.000   0.017   28.6    54   18.3   29.7   9.75  .0714    117    1    100.0    5 
26/06/17  16:40   23.4   23.4   23.3    58   14.7   6.0   ESE   0.50   9.0   ESE   23.4   23.7   23.7  1011.4  0.00  0.00   0.000   0.018   28.6    54   18.4   29.8   9.75  .0714    116    1    100.0    5 
26/06/17  16:45   23.4   23.4   23.4    60   15.2   5.0   ESE   0.42   6.0   ESE   23.4   23.8   23.8  1011.3  0.00  0.00   0.000   0.018   28.6    54   18.4   29.8   9.75  .0714    117    1    100.0    5 
26/06/17  16:50   23.2   23.4   23.2    60   15.0   6.0   ESE   0.50   9.0    SE   23.2   23.5   23.5  1011.2  0.00  0.00   0.000   0.017   28.7    54   18.4   29.9   9.75  .0714    117    1    100.0    5 
26/06/17  16:55   22.9   23.2   22.9    61   15.0   7.0   ESE   0.58  10.0    SE   22.9   23.2   23.2  1011.2  0.00  0.00   0.000   0.016   28.7    54   18.4   29.9   9.75  .0714    116    1    100.0    5 
26/06/17  17:00   22.7   22.9   22.7    63   15.3   8.0   ESE   0.67  11.0   ESE   22.4   22.9   22.7  1011.2  0.00  0.00   0.000   0.015   28.7    54   18.5   29.9   9.75  .0714    117    1    100.0    5 
26/06/17  17:05   22.5   22.7   22.5    63   15.1   9.0   ESE   0.75  11.0   ESE   21.7   22.7   21.9  1011.1  0.00  0.00   0.000   0.014   28.7    54   18.5   29.9   9.75  .0713    117    1    100.0    5 
26/06/17  17:10   22.1   22.4   22.1    65   15.2   9.0   ESE   0.75  12.0   ESE   21.3   22.2   21.4  1011.2  0.00  0.00   0.000   0.013   28.8    54   18.5   30.1   9.75  .0713    117    1    100.0    5 
26/06/17  17:15   21.8   22.1   21.8    65   14.9   9.0   ESE   0.75  12.0   ESE   21.0   21.8   21.0  1011.1  0.00  0.00   0.000   0.012   28.8    54   18.5   30.1   9.75  .0713    116    1    100.0    5 
26/06/17  17:20   21.4   21.8   21.4    66   14.8   9.0   ESE   0.75  11.0   ESE   20.7   21.4   20.6  1011.2  0.00  0.00   0.000   0.011   28.8    54   18.5   30.1   9.75  .0713    117    1    100.0    5 
26/06/17  17:25   21.1   21.4   21.1    67   14.7   9.0   ESE   0.75  12.0   ESE   20.3   21.0   20.2  1011.1  0.00  0.00   0.000   0.009   28.8    54   18.5   30.1   9.75  .0713    116    1    100.0    5 
26/06/17  17:30   20.8   21.1   20.8    68   14.7   6.0   ESE   0.50   9.0   ESE   20.8   20.8   20.8  1011.2  0.00  0.00   0.000   0.008   28.8    53   18.2   29.9   9.57  .0714    117    1    100.0    5 
26/06/17  17:35   20.5   20.8   20.5    68   14.4   6.0   ESE   0.50   9.0   ESE   20.5   20.6   20.6  1011.0  0.00  0.00   0.000   0.008   28.8    53   18.2   29.9   9.57  .0714    116    1    100.0    5 
26/06/17  17:40   20.3   20.5   20.3    69   14.4   7.0   ESE   0.58   9.0   ESE   20.3   20.5   20.5  1011.0  0.00  0.00   0.000   0.007   28.8    53   18.2   29.9   9.57  .0714    116    1    100.0    5 
26/06/17  17:45   20.1   20.3   20.1    70   14.5   5.0   ESE   0.42   9.0   ESE   20.1   20.4   20.4  1011.0  0.00  0.00   0.000   0.006   28.8    53   18.2   29.9   9.57  .0714    117    1    100.0    5 
26/06/17  17:50   20.1   20.1   20.1    71   14.6   6.0   ESE   0.50  10.0     E   20.1   20.4   20.4  1010.9  0.00  0.00   0.000   0.006   28.8    53   18.2   29.9   9.57  .0713    117    1    100.0    5 
26/06/17  17:55   19.9   20.0   19.9    70   14.3   4.0   ESE   0.33   9.0     E   19.9   20.2   20.2  1010.9  0.00  0.00   0.000   0.005   28.8    53   18.2   29.9   9.57  .0713    116    1    100.0    5 
26/06/17  18:00   19.8   19.9   19.8    71   14.4   7.0     E   0.58  10.0   ESE   19.8   20.1   20.1  1010.9  0.00  0.00   0.000   0.005   28.8    53   18.2   29.9   9.57  .0713    116    1    100.0    5 
26/06/17  18:05   19.7   19.8   19.7    71   14.3   5.0     E   0.42   9.0   ESE   19.7   20.1   20.1  1010.8  0.00  0.00   0.000   0.005   28.8    53   18.2   29.9   9.57  .0713    117    1    100.0    5 
26/06/17  18:10   19.6   19.7   19.6    71   14.2   5.0     E   0.42   9.0     E   19.6   19.9   19.9  1010.8  0.00  0.00   0.000   0.004   28.8    53   18.2   29.9   9.57  .0713    117    1    100.0    5 
26/06/17  18:15   19.6   19.6   19.6    71   14.2   6.0     E   0.50  10.0     E   19.6   19.8   19.8  1010.8  0.00  0.00   0.000   0.004   28.8    53   18.2   29.9   9.57  .0713    117    1    100.0    5 
26/06/17  18:20   19.4   19.6   19.4    71   14.0   7.0     E   0.58  11.0     E   19.4   19.7   19.7  1010.8  0.00  0.00   0.000   0.004   28.8    53   18.2   29.9   9.57  .0713    115    1    100.0    5 
26/06/17  18:25   19.3   19.4   19.3    72   14.2   6.0     E   0.50  11.0     E   19.3   19.6   19.6  1010.7  0.00  0.00   0.000   0.003   28.8    53   18.2   29.9   9.57  .0713    117    1    100.0    5 
26/06/17  18:30   19.2   19.3   19.2    73   14.3   7.0     E   0.58  11.0   ESE   19.2   19.5   19.5  1010.7  0.00  0.00   0.000   0.003   28.8    53   18.2   29.9   9.57  .0713    116    1    100.0    5 
26/06/17  18:35   19.2   19.2   19.2    74   14.4   6.0     E   0.50  10.0   ESE   19.2   19.4   19.4  1010.7  0.00  0.00   0.000   0.003   28.8    53   18.2   29.9   9.57  .0713    116    1    100.0    5 
26/06/17  18:40   19.1   19.2   19.1    74   14.3   5.0     E   0.42   9.0   ESE   19.1   19.3   19.3  1010.7  0.00  0.00   0.000   0.003   28.7    53   18.2   29.9   9.58  .0713    116    1    100.0    5 
26/06/17  18:45   19.0   19.1   19.0    75   14.5   4.0     E   0.33   8.0     E   19.0   19.3   19.3  1010.7  0.00  0.00   0.000   0.002   28.8    53   18.2   29.9   9.57  .0713    117    1    100.0    5 
26/06/17  18:50   18.9   19.0   18.9    75   14.4   4.0   ENE   0.33   7.0   ENE   18.9   19.2   19.2  1010.6  0.00  0.00   0.000   0.002   28.7    53   18.2   29.9   9.58  .0713    117    1    100.0    5 
26/06/17  18:55   18.9   18.9   18.9    75   14.4   2.0   ENE   0.17   6.0   ENE   18.9   19.2   19.2  1010.6  0.00  0.00   0.000   0.002   28.7    53   18.2   29.9   9.58  .0713    117    1    100.0    5 
26/06/17  19:00   18.7   18.9   18.7    74   13.9   5.0   ENE   0.42   9.0     E   18.7   18.9   18.9  1010.7  0.00  0.00   0.000   0.001   28.7    53   18.2   29.9   9.58  .0713    117    1    100.0    5 
26/06/17  19:05   18.5   18.7   18.5    72   13.4   4.0     E   0.33   8.0   ENE   18.5   18.6   18.6  1010.7  0.00  0.00   0.000   0.001   28.7    53   18.2   29.9   9.58  .0714    115    1    100.0    5 
26/06/17  19:10   18.4   18.5   18.4    72   13.3   4.0     E   0.33   9.0     E   18.4   18.6   18.6  1010.8  0.00  0.00   0.000   0.000   28.7    53   18.2   29.9   9.58  .0714    116    1    100.0    5 
26/06/17  19:15   18.4   18.4   18.4    72   13.2   4.0     E   0.33   9.0     E   18.4   18.4   18.4  1010.7  0.00  0.00   0.000   0.000   28.7    53   18.2   29.9   9.58  .0714    116    1    100.0    5 
26/06/17  19:20   18.3   18.4   18.3    72   13.2   4.0   ENE   0.33   9.0   ENE   18.3   18.4   18.4  1010.8  0.00  0.00   0.000   0.000   28.7    53   18.2   29.9   9.58  .0714    117    1    100.0    5 
26/06/17  19:25   18.3   18.4   18.3    71   13.0   2.0   ENE   0.17   9.0   ENE   18.3   18.4   18.4  1010.9  0.00  0.00   0.000   0.000   28.7    53   18.1   29.8   9.58  .0714    117    1    100.0    5 
26/06/17  19:30   18.2   18.3   18.2    70   12.7   1.0    NE   0.08   7.0   ENE   18.2   18.2   18.2  1010.9  0.00  0.00   0.000   0.000   28.7    53   18.1   29.8   9.58  .0714    117    1    100.0    5 
26/06/17  19:35   18.1   18.2   18.1    68   12.1   1.0    NE   0.08   4.0    NE   18.1   18.0   18.0  1010.9  0.00  0.00   0.001   0.000   28.7    52   17.8   29.7   9.38  .0714    116    1    100.0    5 
26/06/17  19:40   18.0   18.1   18.0    68   12.0   1.0    NE   0.08   7.0    NE   18.0   17.9   17.9  1010.9  0.00  0.00   0.001   0.000   28.7    52   17.8   29.7   9.38  .0714    117    1    100.0    5 
26/06/17  19:45   17.9   18.0   17.9    68   12.0   1.0    NE   0.08   7.0     E   17.9   17.8   17.8  1010.9  0.00  0.00   0.001   0.000   28.7    52   17.8   29.7   9.38  .0714    117    1    100.0    5 
26/06/17  19:50   17.8   17.9   17.8    69   12.1   5.0   ENE   0.42  10.0     E   17.8   17.7   17.7  1010.9  0.00  0.00   0.002   0.000   28.6    52   17.8   29.6   9.38  .0714    117    1    100.0    5 
26/06/17  19:55   17.8   17.8   17.8    68   11.8   7.0   ENE   0.58  13.0   ENE   17.8   17.6   17.6  1010.9  0.00  0.00   0.002   0.000   28.6    52   17.8   29.6   9.38  .0714    115    1    100.0    5 
26/06/17  20:00   17.7   17.8   17.7    68   11.7   7.0     E   0.58  13.0   ENE   17.7   17.6   17.6  1010.8  0.00  0.00   0.002   0.000   28.6    52   17.7   29.5   9.38  .0714    117    1    100.0    5 
26/06/17  20:05   17.7   17.7   17.7    69   12.0   6.0     E   0.50  10.0     E   17.7   17.6   17.6  1010.8  0.00  0.00   0.002   0.000   28.6    52   17.7   29.5   9.38  .0714    115    1    100.0    5 
26/06/17  20:10   17.7   17.7   17.7    70   12.1   7.0   ENE   0.58  10.0     E   17.7   17.6   17.6  1010.8  0.00  0.00   0.002   0.000   28.6    52   17.7   29.5   9.38  .0714    114    1    100.0    5 
26/06/17  20:15   17.6   17.7   17.6    70   12.0   3.0   ENE   0.25  10.0   ENE   17.6   17.4   17.4  1010.8  0.00  0.00   0.003   0.000   28.6    52   17.7   29.5   9.38  .0714    117    1    100.0    5 
26/06/17  20:20   17.4   17.6   17.4    68   11.5   2.0    NE   0.17   7.0    NE   17.4   17.2   17.2  1010.8  0.00  0.00   0.003   0.000   28.6    52   17.7   29.5   9.38  .0714    116    1    100.0    5 
26/06/17  20:25   17.4   17.4   17.4    68   11.4   2.0    NE   0.17   7.0    NE   17.4   17.2   17.2  1010.8  0.00  0.00   0.003   0.000   28.6    52   17.7   29.5   9.38  .0714    114    1    100.0    5 
26/06/17  20:30   17.3   17.4   17.3    67   11.1   3.0    NE   0.25   7.0    NE   17.3   17.0   17.0  1010.7  0.00  0.00   0.004   0.000   28.5    52   17.7   29.4   9.38  .0714    118    1    100.0    5 
26/06/17  20:35   17.2   17.3   17.2    65   10.5   5.0    NE   0.42  10.0    NE   17.2   16.8   16.8  1010.7  0.00  0.00   0.004   0.000   28.5    52   17.7   29.4   9.38  .0714    116    1    100.0    5 
26/06/17  20:40   17.1   17.2   17.1    65   10.4   3.0   ENE   0.25   8.0     E   17.1   16.7   16.7  1010.7  0.00  0.00   0.004   0.000   28.4    52   17.6   29.3   9.39  .0715    116    1    100.0    5 
26/06/17  20:45   17.1   17.1   17.1    65   10.4   4.0     E   0.33  13.0     E   17.1   16.7   16.7  1010.7  0.00  0.00   0.004   0.000   28.4    52   17.6   29.3   9.39  .0715    117    1    100.0    5 
26/06/17  20:50   17.1   17.1   17.1    67   10.9   8.0     E   0.67  13.0   ESE   16.5   16.8   16.2  1010.7  0.00  0.00   0.004   0.000   28.4    52   17.6   29.3   9.39  .0715    117    1    100.0    5 
26/06/17  20:55   17.0   17.1   17.0    66   10.6   8.0     E   0.67  13.0     E   16.4   16.7   16.1  1010.7  0.00  0.00   0.005   0.000   28.4    52   17.6   29.2   9.39  .0715    115    1    100.0    5 
26/06/17  21:00   16.9   17.0   16.9    66   10.5   9.0     E   0.75  14.0     E   15.9   16.6   15.6  1010.7  0.00  0.00   0.005   0.000   28.4    52   17.6   29.2   9.39  .0715    117    1    100.0    5 
26/06/17  21:05   16.9   16.9   16.8    65   10.3   9.0     E   0.75  15.0     E   15.8   16.5   15.4  1010.7  0.00  0.00   0.005   0.000   28.4    52   17.6   29.2   9.39  .0715    117    1    100.0    5 
26/06/17  21:10   16.8   16.8   16.8    65   10.2   9.0   ENE   0.75  15.0   ENE   15.7   16.4   15.3  1010.7  0.00  0.00   0.005   0.000   28.3    51   17.2   29.1   9.29  .0715    114    1    100.0    5 
26/06/17  21:15   16.7   16.8   16.7    64    9.9   7.0   ENE   0.58  15.0     E   16.6   16.3   16.1  1010.6  0.00  0.00   0.006   0.000   28.3    51   17.2   29.1   9.29  .0715    117    1    100.0    5 
26/06/17  21:20   16.7   16.7   16.7    64    9.8   7.0   ENE   0.58  13.0   ENE   16.5   16.2   16.1  1010.5  0.00  0.00   0.006   0.000   28.3    51   17.2   29.1   9.29  .0715    116    1    100.0    5 
26/06/17  21:25   16.6   16.7   16.6    66   10.2   9.0     E   0.75  15.0     E   15.5   16.2   15.1  1010.5  0.00  0.00   0.006   0.000   28.3    51   17.2   29.0   9.29  .0715    116    1    100.0    5 
26/06/17  21:30   16.6   16.6   16.6    67   10.4   9.0     E   0.75  15.0     E   15.4   16.2   15.1  1010.5  0.00  0.00   0.006   0.000   28.3    51   17.2   29.0   9.29  .0715    116    1    100.0    5 
26/06/17  21:35   16.5   16.6   16.5    68   10.6   8.0     E   0.67  13.0     E   15.8   16.2   15.5  1010.5  0.00  0.00   0.006   0.000   28.3    51   17.2   29.0   9.29  .0715    118    1    100.0    5 
26/06/17  21:40   16.4   16.5   16.4    68   10.5   8.0   ENE   0.67  13.0     E   15.8   16.1   15.4  1010.5  0.00  0.00   0.007   0.000   28.2    51   17.1   28.9   9.29  .0716    116    1    100.0    5 
26/06/17  21:45   16.4   16.4   16.4    68   10.5   6.0   ENE   0.50  11.0     E   16.3   16.1   16.0  1010.5  0.00  0.00   0.007   0.000   28.2    51   17.1   28.8   9.30  .0716    115    1    100.0    5 
26/06/17  21:50   16.3   16.4   16.3    68   10.4   6.0   ENE   0.50  13.0   ENE   16.2   15.9   15.8  1010.5  0.00  0.00   0.007   0.000   28.2    51   17.1   28.8   9.30  .0716    117    1    100.0    5 
26/06/17  21:55   16.2   16.3   16.2    67   10.1   6.0   ENE   0.50  10.0   ENE   16.1   15.8   15.7  1010.5  0.00  0.00   0.007   0.000   28.2    51   17.1   28.8   9.30  .0716    117    1    100.0    5 
26/06/17  22:00   16.1   16.2   16.1    67   10.0   6.0   ENE   0.50  11.0   ENE   16.0   15.7   15.6  1010.5  0.00  0.00   0.008   0.000   28.1    51   17.0   28.7   9.30  .0716    117    1    100.0    5 
26/06/17  22:05   16.1   16.1   16.1    67    9.9   7.0   ENE   0.58  14.0    NE   15.7   15.7   15.3  1010.4  0.00  0.00   0.008   0.000   28.1    51   17.0   28.7   9.30  .0716    115    1    100.0    5 
26/06/17  22:10   16.0   16.1   16.0    67    9.9   8.0    NE   0.67  15.0    NE   15.3   15.6   14.9  1010.3  0.00  0.00   0.008   0.000   28.1    51   17.0   28.7   9.30  .0716    116    1    100.0    5 
26/06/17  22:15   16.0   16.0   16.0    67    9.9   7.0    NE   0.58  14.0   ENE   15.7   15.6   15.3  1010.3  0.00  0.00   0.008   0.000   28.1    51   17.0   28.7   9.30  .0716    116    1    100.0    5 
26/06/17  22:20   16.0   16.0   16.0    67    9.9   8.0   ENE   0.67  16.0   ENE   15.3   15.6   14.9  1010.3  0.00  0.00   0.008   0.000   28.0    51   16.9   28.6   9.30  .0716    117    1    100.0    5 
26/06/17  22:25   16.0   16.0   16.0    67    9.9   6.0   ENE   0.50  14.0    NE   15.9   15.6   15.5  1010.3  0.00  0.00   0.008   0.000   28.0    51   16.9   28.6   9.30  .0716    117    1    100.0    5 
26/06/17  22:30   16.1   16.1   16.0    67    9.9   6.0    NE   0.50  11.0    NE   15.9   15.7   15.6  1010.3  0.00  0.00   0.008   0.000   28.0    51   16.9   28.6   9.30  .0716    115    1    100.0    5 
26/06/17  22:35   16.1   16.1   16.1    67    9.9   5.0   ENE   0.42  10.0     E   16.1   15.7   15.7  1010.2  0.00  0.00   0.008   0.000   27.9    51   16.9   28.4   9.30  .0716    115    1    100.0    5 
26/06/17  22:40   16.0   16.1   16.0    67    9.9   4.0    NE   0.33   8.0   ENE   16.0   15.6   15.6  1010.3  0.00  0.00   0.008   0.000   27.9    51   16.8   28.4   9.31  .0716    117    1    100.0    5 
26/06/17  22:45   15.9   16.0   15.9    67    9.8   5.0    NE   0.42  11.0    NE   15.9   15.6   15.6  1010.3  0.00  0.00   0.008   0.000   27.9    51   16.8   28.4   9.31  .0716    115    1    100.0    5 
26/06/17  22:50   15.9   15.9   15.9    68   10.0   7.0   ENE   0.58  14.0   ENE   15.5   15.5   15.1  1010.4  0.00  0.00   0.008   0.000   27.9    51   16.8   28.4   9.31  .0716    115    1    100.0    5 
26/06/17  22:55   15.8   15.9   15.8    68    9.9   5.0   ENE   0.42  10.0   ENE   15.8   15.4   15.4  1010.3  0.00  0.00   0.009   0.000   27.8    50   16.5   28.2   9.11  .0717    117    1    100.0    5 
26/06/17  23:00   15.8   15.8   15.8    68    9.9   7.0   ENE   0.58  13.0    NE   15.4   15.4   15.0  1010.2  0.00  0.00   0.009   0.000   27.8    50   16.5   28.2   9.11  .0717    117    1    100.0    5 
26/06/17  23:05   15.7   15.8   15.7    68    9.8   5.0   ENE   0.42  13.0    NE   15.7   15.3   15.3  1010.2  0.00  0.00   0.009   0.000   27.8    50   16.4   28.1   9.11  .0717    116    1    100.0    5 
26/06/17  23:10   15.7   15.7   15.7    69   10.0   4.0    NE   0.33   8.0   ENE   15.7   15.3   15.3  1010.1  0.00  0.00   0.009   0.000   27.7    50   16.4   28.1   9.11  .0717    116    1    100.0    5 
26/06/17  23:15   15.6   15.7   15.6    69    9.9   5.0    NE   0.42  10.0    NE   15.6   15.2   15.2  1010.0  0.00  0.00   0.009   0.000   27.7    50   16.4   28.1   9.11  .0717    116    1    100.0    5 
26/06/17  23:20   15.5   15.6   15.5    69    9.8   4.0    NE   0.33   9.0    NE   15.5   15.1   15.1  1010.0  0.00  0.00   0.010   0.000   27.7    50   16.3   27.9   9.11  .0717    116    1    100.0    5 
26/06/17  23:25   15.4   15.5   15.4    70   10.0   4.0    NE   0.33  11.0    NE   15.4   15.1   15.1  1009.8  0.00  0.00   0.010   0.000   27.7    50   16.3   27.9   9.11  .0717    116    1    100.0    5 
26/06/17  23:30   15.4   15.4   15.4    70    9.9   4.0    NE   0.33   8.0    NE   15.4   15.1   15.1  1009.7  0.00  0.00   0.010   0.000   27.6    50   16.2   27.9   9.12  .0717    114    1    100.0    5 
26/06/17  23:35   15.3   15.4   15.3    70    9.9   5.0    NE   0.42   9.0   ENE   15.3   15.0   14.9  1009.7  0.00  0.00   0.010   0.000   27.6    50   16.2   27.9   9.12  .0717    117    1    100.0    5 
26/06/17  23:40   15.2   15.3   15.2    71   10.0   4.0    NE   0.33   8.0   ENE   15.2   14.9   14.9  1009.7  0.00  0.00   0.011   0.000   27.6    50   16.2   27.9   9.12  .0717    118    1    100.0    5 
26/06/17  23:45   15.2   15.2   15.2    71    9.9   5.0    NE   0.42  10.0    NE   15.1   14.8   14.8  1009.7  0.00  0.00   0.011   0.000   27.6    50   16.2   27.8   9.12  .0717    116    1    100.0    5 
26/06/17  23:50   15.2   15.2   15.2    72   10.2   2.0    NE   0.17   7.0    NE   15.2   14.8   14.8  1009.7  0.00  0.00   0.011   0.000   27.5    50   16.1   27.7   9.12  .0717    116    1    100.0    5 
26/06/17  23:55   15.2   15.2   15.2    72   10.2   3.0   ENE   0.25   8.0    NE   15.2   14.8   14.8  1009.7  0.00  0.00   0.011   0.000   27.5    50   16.1   27.7   9.12  .0717    117    1    100.0    5 
27/06/17  00:00   15.2   15.2   15.2    72   10.2   3.0    NE   0.25   8.0   ENE   15.2   14.8   14.8  1009.6  0.00  0.00   0.011   0.000   27.5    50   16.1   27.7   9.12  .0717    116    1    100.0    5 
27/06/17   0:05   15.2   15.2   15.2    72   10.2   4.0   ENE   0.33   9.0    NE   15.2   14.9   14.9  1009.6  0.00  0.00   0.011   0.000   27.4    50   16.1   27.7   9.12  .0718    115    1    100.0    5 
27/06/17   0:10   15.2   15.2   15.2    73   10.4   4.0    NE   0.33  10.0    NE   15.2   14.9   14.9  1009.6  0.00  0.00   0.011   0.000   27.4    50   16.1   27.7   9.12  .0718    116    1    100.0    5 
27/06/17   0:15   15.3   15.3   15.2    73   10.5   5.0    NE   0.42  11.0    NE   15.2   15.0   14.9  1009.5  0.00  0.00   0.011   0.000   27.4    50   16.0   27.6   9.12  .0718    115    1    100.0    5 
27/06/17   0:20   15.3   15.3   15.3    73   10.5   5.0    NE   0.42  10.0   ENE   15.3   15.1   15.0  1009.4  0.00  0.00   0.010   0.000   27.4    50   16.0   27.6   9.12  .0718    116    1    100.0    5 
27/06/17   0:25   15.4   15.4   15.3    72   10.4   7.0   ENE   0.58  13.0     E   14.9   15.1   14.6  1009.3  0.00  0.00   0.010   0.000   27.3    50   16.0   27.5   9.13  .0718    116    1    100.0    5 
27/06/17   0:30   15.4   15.4   15.4    72   10.4   6.0    NE   0.50  13.0   ENE   15.2   15.2   14.9  1009.2  0.00  0.00   0.010   0.000   27.3    50   16.0   27.5   9.13  .0718    117    1    100.0    5 
27/06/17   0:35   15.5   15.5   15.4    71   10.3   5.0   ENE   0.42  13.0   ENE   15.5   15.2   15.2  1009.2  0.00  0.00   0.010   0.000   27.3    50   16.0   27.5   9.13  .0718    117    1    100.0    5 
27/06/17   0:40   15.6   15.6   15.5    71   10.3   7.0   ENE   0.58  15.0   ENE   15.1   15.2   14.8  1009.2  0.00  0.00   0.010   0.000   27.3    50   15.9   27.4   9.13  .0718    117    1    100.0    5 
27/06/17   0:45   15.7   15.7   15.6    71   10.4   6.0   ENE   0.50  12.0    NE   15.4   15.3   15.1  1009.1  0.00  0.00   0.009   0.000   27.2    50   15.9   27.3   9.13  .0718    116    1    100.0    5 
27/06/17   0:50   15.7   15.7   15.7    71   10.4   7.0   ENE   0.58  18.0   ENE   15.2   15.3   14.9  1009.0  0.00  0.00   0.009   0.000   27.2    50   15.9   27.3   9.13  .0718    117    1    100.0    5 
27/06/17   0:55   15.7   15.8   15.7    70   10.3   7.0    NE   0.58  17.0   ENE   15.3   15.4   15.0  1008.9  0.00  0.00   0.009   0.000   27.2    50   15.8   27.3   9.13  .0718    117    1    100.0    5 
27/06/17   1:00   15.8   15.8   15.7    70   10.3   7.0   ENE   0.58  14.0   ENE   15.4   15.4   15.1  1009.0  0.00  0.00   0.009   0.000   27.2    50   15.8   27.3   9.13  .0718    116    1    100.0    5 
27/06/17   1:05   15.9   15.9   15.8    70   10.4   7.0   ENE   0.58  14.0     E   15.5   15.6   15.2  1008.9  0.00  0.00   0.008   0.000   27.2    50   15.8   27.3   9.13  .0718    115    1    100.0    5 
27/06/17   1:10   15.9   15.9   15.8    70   10.5   7.0   ENE   0.58  16.0   ENE   15.6   15.6   15.2  1008.9  0.00  0.00   0.008   0.000   27.1    50   15.8   27.2   9.13  .0718    117    1    100.0    5 
27/06/17   1:15   16.0   16.0   15.9    71   10.7   9.0   ENE   0.75  17.0     E   14.8   15.7   14.6  1008.7  0.00  0.00   0.008   0.000   27.1    50   15.7   27.2   9.14  .0718    116    1    100.0    5 
27/06/17   1:20   16.1   16.1   16.0    72   11.0   9.0   ENE   0.75  15.0   ENE   14.9   15.8   14.6  1008.7  0.00  0.00   0.008   0.000   27.1    50   15.7   27.2   9.14  .0718    116    1    100.0    5 
27/06/17   1:25   16.1   16.1   16.1    72   11.0   8.0   ENE   0.67  16.0     E   15.3   15.8   15.1  1008.7  0.00  0.00   0.008   0.000   27.1    50   15.7   27.2   9.14  .0718    117    1    100.0    5 
27/06/17   1:30   16.1   16.1   16.1    72   11.0   7.0   ENE   0.58  16.0   ENE   15.7   15.8   15.4  1008.8  0.00  0.00   0.008   0.000   27.0    50   15.7   27.1   9.14  .0718    117    1    100.0    5 
27/06/17   1:35   16.1   16.1   16.1    73   11.2   8.0    NE   0.67  13.0   ENE   15.3   15.8   15.1  1008.7  0.00  0.00   0.008   0.000   27.0    50   15.7   27.1   9.14  .0718    117    1    100.0    5 
27/06/17   1:40   16.1   16.1   16.0    73   11.2   8.0   ENE   0.67  17.0    NE   15.3   15.8   15.1  1008.6  0.00  0.00   0.008   0.000   26.9    50   15.6   27.0   9.14  .0718    117    1    100.0    5 
27/06/17   1:45   15.9   16.0   15.9    73   11.1   7.0    NE   0.58  12.0    NE   15.6   15.7   15.3  1008.6  0.00  0.00   0.008   0.000   26.9    50   15.6   27.0   9.14  .0718    117    1    100.0    5 
27/06/17   1:50   15.9   15.9   15.9    74   11.3   7.0    NE   0.58  13.0     E   15.6   15.7   15.3  1008.5  0.00  0.00   0.008   0.000   26.9    50   15.6   27.0   9.14  .0718    115    1    100.0    5 
27/06/17   1:55   15.9   15.9   15.9    74   11.3   4.0    NE   0.33  10.0   ENE   15.9   15.7   15.7  1008.6  0.00  0.00   0.008   0.000   26.9    50   15.6   26.9   9.14  .0719    116    1    100.0    5 
27/06/17   2:00   15.9   15.9   15.9    74   11.3   7.0    NE   0.58  13.0    NE   15.6   15.7   15.3  1008.5  0.00  0.00   0.008   0.000   26.8    50   15.5   26.9   9.14  .0719    117    1    100.0    5 
27/06/17   2:05   15.9   15.9   15.9    75   11.5   8.0    NE   0.67  13.0   ENE   15.2   15.8   15.0  1008.4  0.00  0.00   0.008   0.000   26.8    50   15.5   26.9   9.14  .0719    117    1    100.0    5 
27/06/17   2:10   15.9   16.0   15.9    75   11.5   8.0   ENE   0.67  15.0   ENE   15.2   15.8   15.0  1008.3  0.00  0.00   0.008   0.000   26.8    50   15.5   26.9   9.14  .0719    117    1    100.0    5 
27/06/17   2:15   15.9   15.9   15.9    75   11.5   7.0   ENE   0.58  14.0   ENE   15.6   15.8   15.4  1008.3  0.00  0.00   0.008   0.000   26.8    50   15.5   26.8   9.15  .0719    115    1    100.0    5 
27/06/17   2:20   16.0   16.0   15.9    75   11.6   7.0   ENE   0.58  15.0    NE   15.7   15.8   15.5  1008.2  0.00  0.00   0.008   0.000   26.8    50   15.5   26.8   9.15  .0719    116    1    100.0    5 
27/06/17   2:25   16.0   16.0   16.0    76   11.8   8.0   ENE   0.67  15.0   ENE   15.3   15.8   15.1  1008.1  0.00  0.00   0.008   0.000   26.7    50   15.4   26.8   9.15  .0719    117    1    100.0    5 
27/06/17   2:30   16.0   16.0   16.0    76   11.8   8.0    NE   0.67  13.0   ENE   15.3   15.8   15.1  1008.1  0.00  0.00   0.008   0.000   26.7    50   15.4   26.8   9.15  .0719    116    1    100.0    5 
27/06/17   2:35   16.0   16.0   16.0    76   11.8   7.0    NE   0.58  12.0   ENE   15.7   15.8   15.5  1008.1  0.00  0.00   0.008   0.000   26.7    50   15.4   26.7   9.15  .0719    117    1    100.0    5 
27/06/17   2:40   16.0   16.0   16.0    76   11.8   7.0   ENE   0.58  14.0   ENE   15.7   15.8   15.5  1008.1  0.00  0.00   0.008   0.000   26.7    50   15.4   26.7   9.15  .0719    117    1    100.0    5 
27/06/17   2:45   16.0   16.0   16.0    76   11.8   7.0   ENE   0.58  13.0    NE   15.7   15.8   15.5  1008.0  0.00  0.00   0.008   0.000   26.6    50   15.3   26.7   9.15  .0719    115    1    100.0    5 
27/06/17   2:50   16.1   16.1   16.0    76   11.8   7.0    NE   0.58  13.0   ENE   15.7   15.9   15.6  1007.9  0.00  0.00   0.008   0.000   26.6    50   15.3   26.7   9.15  .0719    116    1    100.0    5 
27/06/17   2:55   16.1   16.1   16.1    76   11.8   7.0   ENE   0.58  13.0   NNE   15.7   15.9   15.6  1007.8  0.00  0.00   0.008   0.000   26.6    50   15.3   26.7   9.15  .0719    115    1    100.0    5 
27/06/17   3:00   16.1   16.1   16.1    76   11.8   6.0   ENE   0.50  12.0   ENE   15.9   15.9   15.8  1007.7  0.00  0.00   0.008   0.000   26.6    50   15.3   26.6   9.15  .0719    117    1    100.0    5 
27/06/17   3:05   16.1   16.1   16.1    76   11.9   6.0    NE   0.50  13.0   ENE   16.0   16.0   15.9  1007.7  0.00  0.00   0.008   0.000   26.6    50   15.3   26.6   9.15  .0719    116    1    100.0    5 
27/06/17   3:10   16.1   16.1   16.1    76   11.9   5.0    NE   0.42  14.0    NE   16.1   16.0   16.0  1007.7  0.00  0.00   0.008   0.000   26.6    50   15.3   26.6   9.15  .0719    116    1    100.0    5 
27/06/17   3:15   16.1   16.1   16.1    76   11.9   6.0    NE   0.50  17.0    NE   16.0   16.0   15.9  1007.6  0.00  0.00   0.008   0.000   26.5    50   15.2   26.6   9.16  .0719    117    1    100.0    5 
27/06/17   3:20   16.2   16.2   16.1    77   12.1   5.0    NE   0.42  10.0   ENE   16.2   16.1   16.1  1007.4  0.00  0.00   0.008   0.000   26.4    50   15.2   26.5   9.16  .0719    117    1    100.0    5 
27/06/17   3:25   16.2   16.2   16.2    77   12.1   7.0   ENE   0.58  15.0    NE   15.8   16.1   15.7  1007.3  0.00  0.00   0.008   0.000   26.4    50   15.2   26.5   9.16  .0719    115    1    100.0    5 
27/06/17   3:30   16.2   16.2   16.2    77   12.1   7.0   ENE   0.58  13.0   ENE   15.8   16.1   15.7  1007.1  0.00  0.00   0.008   0.000   26.4    50   15.1   26.4   9.16  .0719    116    1    100.0    5 
27/06/17   3:35   16.2   16.2   16.2    76   12.0   6.0    NE   0.50  12.0    NE   16.1   16.1   16.0  1007.1  0.00  0.00   0.007   0.000   26.4    50   15.2   26.5   9.16  .0719    116    1    100.0    5 
27/06/17   3:40   16.3   16.3   16.2    76   12.0   7.0   ENE   0.58  12.0   ENE   16.0   16.2   15.9  1007.0  0.00  0.00   0.007   0.000   26.4    50   15.1   26.4   9.16  .0719    117    1    100.0    5 
27/06/17   3:45   16.3   16.3   16.3    76   12.1   5.0    NE   0.42  11.0   ENE   16.3   16.2   16.2  1007.0  0.00  0.00   0.007   0.000   26.4    50   15.1   26.4   9.16  .0719    116    1    100.0    5 
27/06/17   3:50   16.4   16.4   16.3    76   12.1   5.0    NE   0.42   9.0   ENE   16.4   16.3   16.3  1007.1  0.00  0.00   0.007   0.000   26.3    50   15.1   26.4   9.16  .0719    115    1    100.0    5 
27/06/17   3:55   16.4   16.4   16.4    76   12.2   6.0    NE   0.50  12.0    NE   16.4   16.3   16.3  1007.1  0.00  0.00   0.007   0.000   26.3    50   15.1   26.4   9.16  .0719    117    1    100.0    5 
27/06/17   4:00   16.5   16.5   16.4    75   12.1   4.0    NE   0.33   8.0   ENE   16.5   16.4   16.4  1007.0  0.00  0.00   0.006   0.000   26.3    50   15.1   26.4   9.16  .0719    116    1    100.0    5 
27/06/17   4:05   16.6   16.6   16.5    75   12.1   3.0   ENE   0.25   8.0   ENE   16.6   16.4   16.4  1007.0  0.00  0.00   0.006   0.000   26.3    50   15.1   26.4   9.16  .0719    117    1    100.0    5 
27/06/17   4:10   16.6   16.6   16.6    75   12.2   3.0    NE   0.25   8.0    NE   16.6   16.5   16.5  1007.0  0.00  0.00   0.006   0.000   26.3    50   15.0   26.4   9.16  .0719    117    1    100.0    5 
27/06/17   4:15   16.7   16.7   16.6    75   12.2   4.0    NE   0.33  12.0   ENE   16.7   16.6   16.6  1006.9  0.00  0.00   0.006   0.000   26.3    50   15.0   26.4   9.16  .0719    117    1    100.0    5 
27/06/17   4:20   16.7   16.8   16.7    75   12.3   4.0   ENE   0.33   9.0   ENE   16.7   16.6   16.6  1006.8  0.00  0.00   0.006   0.000   26.2    50   15.0   26.3   9.17  .0719    116    1    100.0    5 
27/06/17   4:25   16.8   16.8   16.7    74   12.2   6.0   ENE   0.50  10.0   ENE   16.8   16.7   16.7  1006.8  0.00  0.00   0.005   0.000   26.2    50   15.0   26.3   9.17  .0719    116    1    100.0    5 
27/06/17   4:30   16.9   16.9   16.8    74   12.2   6.0   ENE   0.50  11.0    NE   16.9   16.8   16.8  1006.8  0.00  0.00   0.005   0.000   26.2    50   15.0   26.3   9.17  .0719    117    1    100.0    5 
27/06/17   4:35   17.0   17.0   16.9    74   12.3   7.0   ENE   0.58  14.0    NE   16.9   16.9   16.8  1006.7  0.00  0.00   0.005   0.000   26.2    50   15.0   26.3   9.17  .0719    116    1    100.0    5 
27/06/17   4:40   17.1   17.1   17.0    74   12.4   6.0   ENE   0.50  13.0     E   17.1   17.0   17.0  1006.7  0.00  0.00   0.004   0.000   26.2    50   15.0   26.3   9.17  .0719    117    1    100.0    5 
27/06/17   4:45   17.3   17.3   17.1    74   12.6   6.0   ENE   0.50  13.0   ENE   17.3   17.2   17.2  1006.6  0.00  0.00   0.004   0.000   26.2    50   15.0   26.3   9.17  .0719    117    1    100.0    5 
27/06/17   4:50   17.4   17.4   17.3    74   12.7   7.0   ENE   0.58  14.0     E   17.3   17.3   17.3  1006.6  0.00  0.00   0.003   0.000   26.2    50   14.9   26.3   9.17  .0719    117    1    100.0    5 
27/06/17   4:55   17.5   17.5   17.4    73   12.6   9.0   ENE   0.75  16.0   ENE   16.6   17.4   16.5  1006.6  0.00  0.00   0.003   0.000   26.2    50   14.9   26.3   9.17  .0719    117    1    100.0    5 
27/06/17   5:00   17.6   17.6   17.5    73   12.7   7.0   ENE   0.58  10.0    NE   17.6   17.5   17.5  1006.6  0.00  0.00   0.003   0.000   26.2    50   14.9   26.3   9.17  .0719    116    1    100.0    5 
27/06/17   5:05   17.6   17.6   17.6    73   12.7   5.0   ENE   0.42   9.0   ENE   17.6   17.6   17.6  1006.6  0.00  0.00   0.003   0.000   26.2    50   14.9   26.3   9.17  .0719    117    1    100.0    5 
27/06/17   5:10   17.7   17.7   17.6    73   12.8   6.0   ENE   0.50  11.0   ENE   17.7   17.6   17.6  1006.6  0.00  0.00   0.002   0.000   26.1    50   14.9   26.2   9.17  .0720    115    1    100.0    5 
27/06/17   5:15   17.8   17.8   17.7    73   12.9   5.0     E   0.42  10.0    NE   17.8   17.8   17.8  1006.6  0.00  0.00   0.002   0.000   26.1    50   14.9   26.2   9.17  .0720    117    1    100.0    5 
27/06/17   5:20   17.8   17.8   17.7    73   12.9   6.0   ENE   0.50  14.0   ESE   17.8   17.8   17.8  1006.7  0.00  0.00   0.002   0.000   26.1    50   14.9   26.2   9.17  .0720    118    1    100.0    5 
27/06/17   5:25   17.8   17.8   17.8    73   12.9   6.0   ENE   0.50  12.0   ENE   17.8   17.8   17.8  1006.7  0.00  0.00   0.002   0.000   26.1    50   14.9   26.2   9.17  .0720    117    1    100.0    5 
27/06/17   5:30   17.9   17.9   17.8    74   13.2   7.0     E   0.58  13.0     E   17.9   17.9   17.9  1006.7  0.00  0.00   0.002   0.000   26.1    50   14.8   26.2   9.17  .0720    116    1    100.0    5 
27/06/17   5:35   18.0   18.0   17.9    74   13.3   7.0     E   0.58  13.0   ENE   18.0   18.1   18.1  1006.6  0.00  0.00   0.001   0.000   26.1    50   14.8   26.2   9.17  .0720    117    1    100.0    5 
27/06/17   5:40   18.1   18.1   18.0    74   13.3   6.0     E   0.50  14.0     E   18.1   18.1   18.1  1006.7  0.00  0.00   0.001   0.000   26.1    50   14.8   26.2   9.17  .0720    117    1    100.0    5 
27/06/17   5:45   18.2   18.2   18.1    74   13.5   7.0     E   0.58  12.0     E   18.2   18.3   18.3  1006.6  0.00  0.00   0.001   0.000   26.1    50   14.8   26.2   9.17  .0720    116    1    100.0    5 
27/06/17   5:50   18.3   18.3   18.2    74   13.6   7.0     E   0.58  15.0     E   18.3   18.4   18.4  1006.6  0.00  0.00   0.000   0.000   26.1    50   14.8   26.2   9.17  .0720    115    1    100.0    5 
27/06/17   5:55   18.3   18.3   18.2    74   13.6   8.0     E   0.67  14.0   ESE   18.0   18.4   18.1  1006.6  0.00  0.00   0.000   0.000   26.1    50   14.8   26.2   9.17  .0720    117    1    100.0    5 
27/06/17   6:00   18.5   18.5   18.4    75   14.0   8.0     E   0.67  14.0     E   18.2   18.7   18.4  1006.5  0.00  0.00   0.000   0.001   26.1    50   14.8   26.2   9.17  .0720    116    1    100.0    5 
27/06/17   6:05   18.6   18.6   18.5    74   13.8   9.0     E   0.75  13.0     E   17.8   18.7   17.9  1006.5  0.00  0.00   0.000   0.001   26.0    50   14.8   26.1   9.17  .0720    116    1    100.0    5 
27/06/17   6:10   18.7   18.7   18.6    75   14.1   9.0     E   0.75  14.0     E   17.9   18.9   18.2  1006.4  0.00  0.00   0.000   0.001   26.1    50   14.8   26.2   9.17  .0720    115    1    100.0    5 
27/06/17   6:15   18.8   18.8   18.7    74   14.0   9.0     E   0.75  13.0   ENE   18.1   19.0   18.3  1006.4  0.00  0.00   0.000   0.002   26.1    50   14.8   26.2   9.17  .0720    116    1    100.0    5 
27/06/17   6:20   18.9   18.9   18.8    74   14.2   9.0     E   0.75  13.0     E   18.2   19.1   18.4  1006.4  0.00  0.00   0.000   0.002   26.1    50   14.8   26.2   9.17  .0720    117    1    100.0    5 
27/06/17   6:25   18.9   18.9   18.9    75   14.4   8.0     E   0.67  13.0   ESE   18.6   19.2   18.9  1006.4  0.00  0.00   0.000   0.002   26.1    50   14.8   26.2   9.17  .0720    116    1    100.0    5 
27/06/17   6:30   19.0   19.0   18.9    74   14.3   7.0     E   0.58  11.0   ENE   19.0   19.3   19.3  1006.4  0.00  0.00   0.000   0.002   26.1    50   14.8   26.2   9.17  .0720    117    1    100.0    5 
27/06/17   6:35   19.0   19.0   18.9    75   14.5   7.0     E   0.58  14.0   ENE   19.0   19.3   19.3  1006.4  0.00  0.00   0.000   0.002   26.0    50   14.8   26.1   9.17  .0720    117    1    100.0    5 
27/06/17   6:40   19.1   19.1   19.0    75   14.6   7.0     E   0.58  11.0     E   19.1   19.4   19.4  1006.4  0.00  0.00   0.000   0.003   26.1    50   14.8   26.2   9.17  .0720    117    1    100.0    5 
27/06/17   6:45   19.2   19.2   19.1    75   14.7   8.0     E   0.67  12.0   ESE   18.9   19.6   19.2  1006.4  0.00  0.00   0.000   0.003   26.0    50   14.8   26.1   9.17  .0720    116    1    100.0    5 
27/06/17   6:50   19.4   19.4   19.2    75   14.8   7.0     E   0.58  12.0     E   19.4   19.8   19.8  1006.4  0.00  0.00   0.000   0.004   26.1    50   14.8   26.2   9.17  .0720    117    1    100.0    5 
27/06/17   6:55   19.6   19.6   19.4    75   15.1   7.0     E   0.58  12.0   ESE   19.6   20.1   20.1  1006.3  0.00  0.00   0.000   0.004   26.1    50   14.8   26.2   9.17  .0720    117    1    100.0    5 
27/06/17   7:00   19.9   19.9   19.6    74   15.1   9.0     E   0.75  15.0     E   19.1   20.3   19.6  1006.3  0.00  0.00   0.000   0.005   26.1    50   14.8   26.2   9.17  .0720    116    1    100.0    5 
27/06/17   7:05   20.2   20.2   19.9    74   15.4   8.0   ESE   0.67  13.0   ESE   19.8   20.7   20.3  1006.3  0.00  0.00   0.000   0.006   26.1    50   14.8   26.2   9.17  .0720    117    1    100.0    5 
27/06/17   7:10   20.3   20.3   20.2    73   15.3   9.0   ESE   0.75  14.0   ESE   19.5   20.7   19.9  1006.3  0.00  0.00   0.000   0.007   26.1    50   14.8   26.2   9.17  .0720    116    1    100.0    5 
27/06/17   7:15   20.3   20.3   20.3    72   15.1  11.0   ESE   0.92  16.0   ESE   18.9   20.7   19.3  1006.3  0.00  0.00   0.000   0.007   26.1    50   14.9   26.2   9.17  .0719    117    1    100.0    5 
27/06/17   7:20   20.3   20.3   20.3    72   15.1  10.0   ESE   0.83  15.0   ESE   19.1   20.7   19.5  1006.2  0.00  0.00   0.000   0.007   26.1    50   14.9   26.2   9.17  .0719    117    1    100.0    5 
27/06/17   7:25   20.2   20.3   20.2    73   15.2  10.0   ESE   0.83  16.0   ESE   19.0   20.6   19.4  1006.2  0.00  0.00   0.000   0.006   26.1    50   14.9   26.2   9.17  .0719    117    1    100.0    5 
27/06/17   7:30   20.1   20.2   20.1    74   15.3  10.0   ESE   0.83  17.0   ESE   18.9   20.6   19.4  1006.2  0.00  0.00   0.000   0.006   26.1    50   14.9   26.2   9.17  .0719    116    1    100.0    5 
27/06/17   7:35   20.1   20.1   20.1    74   15.3   9.0   ESE   0.75  15.0     E   19.3   20.6   19.8  1006.0  0.00  0.00   0.000   0.006   26.1    50   14.9   26.2   9.17  .0719    117    1    100.0    5 
27/06/17   7:40   20.1   20.1   20.1    74   15.3  10.0     E   0.83  15.0     E   18.9   20.6   19.4  1006.1  0.00  0.00   0.000   0.006   26.1    50   14.9   26.2   9.17  .0719    116    1    100.0    5 
27/06/17   7:45   20.2   20.2   20.1    74   15.4  11.0     E   0.92  16.0     E   18.7   20.7   19.2  1006.0  0.00  0.00   0.000   0.006   26.2    50   14.9   26.3   9.17  .0719    117    1    100.0    5 
27/06/17   7:50   20.2   20.2   20.2    74   15.4  11.0   ESE   0.92  16.0     E   18.8   20.7   19.3  1005.9  0.00  0.00   0.000   0.007   26.2    50   15.0   26.3   9.17  .0719    116    1    100.0    5 
27/06/17   7:55   20.3   20.3   20.2    73   15.3   9.0   ESE   0.75  16.0   ESE   19.6   20.8   20.0  1005.9  0.00  0.00   0.000   0.007   26.2    50   15.0   26.3   9.17  .0719    117    1    100.0    5 
27/06/17   8:00   20.4   20.4   20.3    73   15.4  10.0   ESE   0.83  16.0   ESE   19.2   20.8   19.7  1006.0  0.00  0.00   0.000   0.007   26.2    50   15.0   26.3   9.17  .0719    116    1    100.0    5 
27/06/17   8:05   20.3   20.4   20.3    73   15.3  10.0   ESE   0.83  15.0   ESE   19.2   20.8   19.6  1006.0  0.00  0.00   0.000   0.007   26.3    50   15.0   26.4   9.16  .0719    115    1    100.0    5 
27/06/17   8:10   20.2   20.3   20.2    73   15.2  10.0   ESE   0.83  14.0   ESE   19.1   20.7   19.5  1006.0  0.00  0.00   0.000   0.007   26.3    50   15.0   26.4   9.16  .0719    117    1    100.0    5 
27/06/17   8:15   20.2   20.2   20.2    74   15.4   9.0   ESE   0.75  14.0   ESE   19.4   20.7   19.9  1006.0  0.00  0.00   0.000   0.006   26.3    50   15.1   26.4   9.16  .0718    117    1    100.0    5 
27/06/17   8:20   20.1   20.2   20.1    73   15.1   8.0     E   0.67  13.0   ESE   19.7   20.6   20.2  1005.9  0.00  0.00   0.000   0.006   26.3    50   15.1   26.4   9.16  .0718    117    1    100.0    5 
27/06/17   8:25   20.1   20.1   20.1    73   15.1  10.0     E   0.83  14.0   ESE   18.9   20.5   19.3  1005.9  0.00  0.00   0.000   0.006   26.3    50   15.1   26.4   9.16  .0718    117    1    100.0    5 
27/06/17   8:30   20.1   20.1   20.1    74   15.3   9.0   ESE   0.75  15.0   ESE   19.3   20.5   19.7  1005.8  0.00  0.00   0.000   0.006   26.4    50   15.1   26.4   9.16  .0718    118    1    100.0    5 
27/06/17   8:35   20.1   20.1   20.1    74   15.3   9.0   ESE   0.75  14.0   ESE   19.3   20.6   19.8  1005.9  0.00  0.00   0.000   0.006   26.4    51   15.4   26.6   9.35  .0718    117    1    100.0    5 
27/06/17   8:40   20.2   20.2   20.1    75   15.6  10.0   ESE   0.83  16.0   ESE   19.1   20.7   19.6  1005.8  0.00  0.00   0.000   0.007   26.4    51   15.4   26.6   9.35  .0718    117    1    100.0    5 
27/06/17   8:45   20.4   20.4   20.2    75   15.8   8.0     E   0.67  14.0   ESE   20.0   20.9   20.6  1005.8  0.00  0.00   0.000   0.007   26.4    51   15.4   26.6   9.35  .0718    116    1    100.0    5 
27/06/17   8:50   20.7   20.7   20.4    74   15.9   9.0   ESE   0.75  14.0   ESE   19.9   21.2   20.4  1005.7  0.00  0.00   0.000   0.008   26.4    51   15.4   26.6   9.35  .0718    117    1    100.0    5 
27/06/17   8:55   21.1   21.1   20.8    74   16.2   8.0     E   0.67  13.0     E   20.8   21.3   21.1  1005.6  0.00  0.00   0.000   0.009   26.4    51   15.5   26.6   9.35  .0718    117    1    100.0    5 
27/06/17   9:00   21.5   21.5   21.1    73   16.5   8.0     E   0.67  14.0   ESE   21.2   21.8   21.6  1005.5  0.00  0.00   0.000   0.011   26.5    51   15.5   26.6   9.35  .0717    116    1    100.0    5 
27/06/17   9:05   21.8   21.8   21.5    72   16.6   9.0   ESE   0.75  14.0   ESE   21.1   22.2   21.4  1005.4  0.00  0.00   0.000   0.012   26.5    51   15.5   26.6   9.35  .0717    115    1    100.0    5 
27/06/17   9:10   21.9   21.9   21.8    70   16.2  11.0   ESE   0.92  16.0   ESE   20.5   22.3   20.8  1005.4  0.00  0.00   0.000   0.013   26.5    51   15.5   26.6   9.35  .0717    117    1    100.0    5 
27/06/17   9:15   22.1   22.1   21.9    71   16.6  10.0   ESE   0.83  15.0   ESE   20.9   22.4   21.3  1005.5  0.00  0.00   0.000   0.013   26.5    51   15.5   26.6   9.35  .0717    116    1    100.0    5 
27/06/17   9:20   22.0   22.1   22.0    69   16.0  11.0   ESE   0.92  17.0   ESE   20.6   22.3   20.8  1005.3  0.00  0.00   0.000   0.013   26.6    51   15.6   26.7   9.35  .0717    117    1    100.0    5 
27/06/17   9:25   21.8   22.0   21.8    70   16.1  10.0   ESE   0.83  14.0     E   20.6   22.1   20.9  1005.4  0.00  0.00   0.000   0.012   26.6    51   15.6   26.7   9.35  .0717    117    1    100.0    5 
27/06/17   9:30   21.4   21.8   21.4    70   15.7   9.0   ESE   0.75  15.0   ESE   20.6   21.6   20.8  1005.5  0.00  0.00   0.000   0.011   26.6    51   15.6   26.7   9.35  .0717    115    1    100.0    5 
27/06/17   9:35   20.9   21.4   20.9    71   15.5  11.0   ESE   0.92  14.0   ESE   19.5   21.1   19.7  1005.6  0.00  0.00   0.000   0.009   26.6    51   15.6   26.7   9.35  .0717    118    1    100.0    5 
27/06/17   9:40   20.6   20.9   20.6    76   16.2  11.0   ESE   0.92  15.0   ESE   19.2   21.2   19.8  1005.6  0.01  0.00   0.000   0.008   26.6    51   15.6   26.7   9.35  .0717    115    1    100.0    5 
27/06/17   9:45   20.4   20.6   20.4    77   16.2   9.0   ESE   0.75  14.0   ESE   19.6   21.1   20.3  1005.3  0.07  2.88   0.000   0.007   26.5    51   15.5   26.6   9.35  .0717    115    1    100.0    5 
27/06/17   9:50   20.0   20.4   20.0    79   16.2   8.0   ESE   0.67  12.0   ESE   19.6   20.7   20.3  1005.3  0.05  2.55   0.000   0.006   26.5    51   15.5   26.6   9.35  .0717    115    1    100.0    5 
27/06/17   9:55   19.6   20.0   19.6    79   15.8   7.0     E   0.58  11.0   ESE   19.6   20.2   20.2  1005.3  0.01  0.22   0.000   0.004   26.5    51   15.5   26.6   9.35  .0717    116    1    100.0    5 
27/06/17  10:00   19.2   19.6   19.2    81   15.8   9.0   ESE   0.75  13.0   ESE   18.4   19.7   19.0  1005.2  0.00  0.07   0.000   0.003   26.6    51   15.6   26.7   9.35  .0717    117    1    100.0    5 
27/06/17  10:05   18.9   19.2   18.9    83   15.9   8.0   ESE   0.67  13.0   ESE   18.6   19.4   19.1  1005.2  0.00  0.05   0.000   0.002   26.6    51   15.6   26.7   9.35  .0717    117    1    100.0    5 
27/06/17  10:10   18.6   18.9   18.6    84   15.9   7.0     E   0.58  13.0   ESE   18.6   19.1   19.1  1005.2  0.00  0.00   0.000   0.001   26.6    51   15.6   26.7   9.35  .0717    115    1    100.0    5 
27/06/17  10:15   18.4   18.6   18.4    85   15.8   7.0     E   0.58  12.0   ESE   18.4   18.8   18.8  1005.3  0.00  0.00   0.000   0.000   26.6    51   15.6   26.7   9.35  .0717    117    1    100.0    5 
27/06/17  10:20   18.1   18.4   18.1    85   15.5  12.0   ESE   1.00  16.0   ESE   16.1   18.4   16.4  1005.3  0.00  0.00   0.001   0.000   26.6    51   15.6   26.7   9.35  .0717    116    1    100.0    5 
27/06/17  10:25   17.7   18.1   17.7    86   15.3  12.0   ESE   1.00  16.0   ESE   15.7   18.1   16.0  1005.3  0.00  0.00   0.002   0.000   26.7    51   15.7   26.8   9.35  .0717    117    1    100.0    5 
27/06/17  10:30   17.6   17.7   17.6    88   15.5  11.0   ESE   0.92  15.0   ESE   15.8   17.9   16.2  1005.2  0.05  1.24   0.003   0.000   26.7    51   15.7   26.8   9.35  .0717    116    1    100.0    5 
27/06/17  10:35   17.4   17.6   17.4    88   15.4   8.0     E   0.67  12.0   ESE   16.9   17.7   17.2  1005.1  0.02  0.76   0.003   0.000   26.7    51   15.7   26.8   9.35  .0717    115    1    100.0    5 
27/06/17  10:40   17.2   17.4   17.2    89   15.4   9.0     E   0.75  12.0     E   16.2   17.6   16.6  1005.1  0.01  0.24   0.004   0.000   26.7    51   15.7   26.8   9.35  .0717    116    1    100.0    5 
27/06/17  10:45   17.1   17.2   17.1    89   15.2   9.0     E   0.75  13.0   ESE   16.0   17.4   16.3  1005.0  0.02  0.33   0.004   0.000   26.7    51   15.7   26.8   9.35  .0716    116    1    100.0    5 
27/06/17  10:50   17.0   17.1   17.0    90   15.3   7.0   ESE   0.58  11.0     E   16.9   17.3   17.2  1005.0  0.04  1.01   0.005   0.000   26.7    51   15.7   26.8   9.35  .0716    117    1    100.0    5 
27/06/17  10:55   17.0   17.0   17.0    90   15.3   6.0     E   0.50  11.0     E   17.0   17.3   17.3  1004.9  0.02  1.01   0.005   0.000   26.7    51   15.7   26.8   9.35  .0716    116    1    100.0    5 
27/06/17  11:00   16.9   17.0   16.9    90   15.3   8.0     E   0.67  12.0   ESE   16.4   17.3   16.7  1004.7  0.00  0.11   0.005   0.000   26.7    51   15.7   26.8   9.35  .0716    117    1    100.0    5 
27/06/17  11:05   16.9   16.9   16.9    91   15.5   8.0   ESE   0.67  13.0   ESE   16.4   17.3   16.7  1004.6  0.00  0.06   0.005   0.000   26.7    51   15.7   26.8   9.35  .0716    116    1    100.0    5 
27/06/17  11:10   16.8   16.9   16.8    91   15.4   6.0     E   0.50  10.0     E   16.8   17.2   17.2  1004.7  0.00  0.04   0.005   0.000   26.7    51   15.7   26.8   9.35  .0716    117    1    100.0    5 
27/06/17  11:15   16.8   16.9   16.8    92   15.5   6.0     E   0.50  10.0   ESE   16.8   17.2   17.2  1004.7  0.00  0.00   0.005   0.000   26.7    51   15.7   26.8   9.35  .0716    116    1    100.0    5 
27/06/17  11:20   16.8   16.8   16.8    92   15.5   6.0   ESE   0.50  10.0     E   16.8   17.2   17.2  1004.8  0.00  0.00   0.005   0.000   26.8    51   15.8   26.9   9.35  .0716    117    1    100.0    5 
27/06/17  11:25   16.8   16.8   16.8    92   15.5   7.0   ESE   0.58  10.0   ESE   16.7   17.2   17.1  1004.6  0.00  0.00   0.005   0.000   26.7    51   15.7   26.8   9.35  .0716    117    1    100.0    5 
27/06/17  11:30   16.8   16.8   16.8    92   15.5   6.0     E   0.50  10.0     E   16.8   17.2   17.2  1004.5  0.04  0.53   0.005   0.000   26.7    51   15.7   26.8   9.35  .0716    117    1    100.0    5 
27/06/17  11:35   16.7   16.8   16.7    92   15.4   5.0     E   0.42   9.0     E   16.7   17.1   17.1  1004.4  0.02  0.53   0.006   0.000   26.8    51   15.8   26.9   9.35  .0716    117    1    100.0    5 
27/06/17  11:40   16.7   16.7   16.7    92   15.4   1.0   ENE   0.08   5.0    NE   16.7   17.0   17.0  1004.4  0.00  0.10   0.006   0.000   26.7    51   15.7   26.8   9.35  .0716    118    1    100.0    5 
27/06/17  11:45   16.7   16.7   16.7    93   15.5   2.0   ENE   0.17   7.0   ENE   16.7   17.0   17.0  1004.3  0.01  0.10   0.006   0.000   26.8    51   15.8   26.9   9.35  .0716    116    1    100.0    5 
27/06/17  11:50   16.8   16.8   16.7    93   15.6   3.0     E   0.25   8.0   ESE   16.8   17.1   17.1  1004.4  0.01  0.09   0.005   0.000   26.8    51   15.8   26.9   9.35  .0716    116    1    100.0    5 
27/06/17  11:55   16.8   16.8   16.8    93   15.7   4.0     E   0.33   9.0     E   16.8   17.2   17.2  1004.4  0.00  0.08   0.005   0.000   26.8    51   15.8   26.9   9.35  .0716    117    1    100.0    5 
27/06/17  12:00   16.8   16.8   16.8    93   15.7   7.0   ESE   0.58  11.0   ESE   16.7   17.2   17.1  1004.3  0.00  0.05   0.005   0.000   26.8    51   15.8   26.9   9.35  .0716    117    1    100.0    5 
27/06/17  12:05   16.8   16.8   16.8    93   15.7   8.0   ESE   0.67  11.0   ESE   16.3   17.2   16.7  1004.3  0.01  0.05   0.005   0.000   26.8    51   15.8   26.9   9.35  .0716    116    1    100.0    5 
27/06/17  12:10   16.8   16.8   16.8    93   15.6  10.0   ESE   0.83  13.0   ESE   15.3   17.1   15.6  1004.3  0.01  0.12   0.005   0.000   26.8    51   15.8   27.0   9.34  .0715    117    1    100.0    5 
27/06/17  12:15   16.7   16.8   16.7    93   15.6  10.0   ESE   0.83  13.0    SE   15.2   17.1   15.6  1004.4  0.00  0.09   0.006   0.000   26.8    51   15.8   26.9   9.35  .0716    117    1    100.0    5 
27/06/17  12:20   16.7   16.7   16.7    93   15.5   9.0    SE   0.75  11.0    SE   15.6   17.0   15.9  1004.4  0.01  0.09   0.006   0.000   26.8    51   15.8   26.9   9.35  .0716    117    1    100.0    5 
27/06/17  12:25   16.6   16.7   16.6    93   15.4   9.0    SE   0.75  11.0    SE   15.4   16.9   15.8  1004.5  0.01  0.15   0.006   0.000   26.8    51   15.8   26.9   9.35  .0716    117    1    100.0    5 
90642